UAL56 LFPG-KEWR
Flight info
| Callsign | UAL56 |
|---|---|
| Flight time | 7h 22m |
| Altitude | 36000 |
| Route | ELCOB UT300 SENLO UN502 JSY DCT LIZAD DCT ARKIL DCT DOLIP DCT MALOT/M082F370 NATE RIKAL/N0471F380 N576B ANATI/N0471F400 DCT IMORI DCT HANAA FLOSI4 |
| Aircraft | B772/H-SDE2E3FGHIJ5LORVWXY/LB1D1 |
Departure
| Time | 2026-05-05 11:57 |
|---|---|
| Airport | Charles de Gaulle International Airport (LFPG) |
Arrival
| Time | 2026-05-05 19:20 |
|---|---|
| Airport | Newark Liberty International Airport (KEWR) |
| Time | Latitude | Longitude | Altitude | Speed | Heading |
|---|---|---|---|---|---|
| 2026-05-05 11:34 | 49.01730 | 2.54196 | 367 ft | 0 kts | 228° |
| 2026-05-05 11:47 | 49.01731 | 2.54197 | 359 ft | 1 kts | 228° |
| 2026-05-05 11:48 | 49.01762 | 2.54250 | 359 ft | 1 kts | 227° |
| 2026-05-05 11:48 | 49.01778 | 2.54277 | 366 ft | 4 kts | 230° |
| 2026-05-05 11:48 | 49.01794 | 2.54305 | 359 ft | 3 kts | 232° |
| 2026-05-05 11:49 | 49.01801 | 2.54337 | 359 ft | 4 kts | 287° |
| 2026-05-05 11:49 | 49.01793 | 2.54371 | 361 ft | 4 kts | 288° |
| 2026-05-05 11:49 | 49.01783 | 2.54409 | 360 ft | 4 kts | 298° |
| 2026-05-05 11:49 | 49.01773 | 2.54440 | 362 ft | 1 kts | 294° |
| 2026-05-05 11:50 | 49.01773 | 2.54441 | 365 ft | 0 kts | 294° |
| 2026-05-05 11:52 | 49.01780 | 2.54414 | 361 ft | 10 kts | 294° |
| 2026-05-05 11:52 | 49.01812 | 2.54241 | 365 ft | 21 kts | 275° |
| 2026-05-05 11:53 | 49.01804 | 2.54021 | 366 ft | 21 kts | 265° |
| 2026-05-05 11:53 | 49.01792 | 2.53799 | 365 ft | 21 kts | 265° |
| 2026-05-05 11:53 | 49.01780 | 2.53573 | 360 ft | 21 kts | 262° |
| 2026-05-05 11:53 | 49.01767 | 2.53354 | 360 ft | 21 kts | 265° |
| 2026-05-05 11:54 | 49.01754 | 2.53131 | 367 ft | 21 kts | 265° |
| 2026-05-05 11:54 | 49.01745 | 2.52908 | 363 ft | 21 kts | 266° |
| 2026-05-05 11:54 | 49.01732 | 2.52685 | 360 ft | 21 kts | 265° |
| 2026-05-05 11:54 | 49.01720 | 2.52462 | 364 ft | 21 kts | 265° |
| 2026-05-05 11:55 | 49.01706 | 2.52240 | 362 ft | 20 kts | 265° |
| 2026-05-05 11:55 | 49.01750 | 2.52145 | 365 ft | 12 kts | 344° |
| 2026-05-05 11:55 | 49.01838 | 2.52130 | 359 ft | 13 kts | 355° |
| 2026-05-05 11:55 | 49.01926 | 2.52119 | 366 ft | 13 kts | 355° |
| 2026-05-05 11:56 | 49.02015 | 2.52108 | 361 ft | 13 kts | 355° |
| 2026-05-05 11:56 | 49.02099 | 2.52124 | 365 ft | 13 kts | 47° |
| 2026-05-05 11:56 | 49.02112 | 2.52216 | 361 ft | 12 kts | 85° |
| 2026-05-05 11:56 | 49.02135 | 2.52630 | 361 ft | 70 kts | 85° |
| 2026-05-05 11:57 | 49.02194 | 2.53690 | 362 ft | 129 kts | 85° |
| 2026-05-05 11:57 | 49.02279 | 2.55307 | 463 ft | 168 kts | 83° |
| 2026-05-05 11:57 | 49.02391 | 2.57056 | 1074 ft | 168 kts | 82° |
| 2026-05-05 11:57 | 49.02477 | 2.58860 | 1629 ft | 173 kts | 85° |
| 2026-05-05 11:58 | 49.02563 | 2.60706 | 2143 ft | 181 kts | 84° |
| 2026-05-05 11:58 | 49.02672 | 2.62725 | 2271 ft | 200 kts | 84° |
| 2026-05-05 11:58 | 49.02794 | 2.64936 | 2401 ft | 218 kts | 84° |
| 2026-05-05 11:58 | 49.02926 | 2.67332 | 2579 ft | 237 kts | 85° |
| 2026-05-05 11:59 | 49.03059 | 2.69923 | 2889 ft | 251 kts | 85° |
| 2026-05-05 11:59 | 49.03235 | 2.72595 | 3325 ft | 256 kts | 77° |
| 2026-05-05 11:59 | 49.04094 | 2.74976 | 3747 ft | 263 kts | 42° |
| 2026-05-05 11:59 | 49.05683 | 2.76305 | 4391 ft | 264 kts | 13° |
| 2026-05-05 12:00 | 49.07523 | 2.76346 | 4936 ft | 269 kts | 346° |
| 2026-05-05 12:00 | 49.09199 | 2.75074 | 5473 ft | 274 kts | 319° |
| 2026-05-05 12:00 | 49.10302 | 2.72726 | 6029 ft | 277 kts | 288° |
| 2026-05-05 12:00 | 49.10556 | 2.69831 | 6576 ft | 276 kts | 268° |
| 2026-05-05 12:01 | 49.10456 | 2.66902 | 7032 ft | 283 kts | 266° |
| 2026-05-05 12:01 | 49.10129 | 2.63972 | 7480 ft | 283 kts | 248° |
| 2026-05-05 12:01 | 49.09306 | 2.61241 | 7930 ft | 285 kts | 244° |
| 2026-05-05 12:01 | 49.08491 | 2.58459 | 8496 ft | 288 kts | 246° |
| 2026-05-05 12:02 | 49.07700 | 2.55639 | 9126 ft | 290 kts | 246° |
| 2026-05-05 12:02 | 49.06911 | 2.52797 | 9718 ft | 292 kts | 246° |
| 2026-05-05 12:02 | 49.06111 | 2.49919 | 10193 ft | 300 kts | 246° |
| 2026-05-05 12:02 | 49.05270 | 2.46894 | 10336 ft | 320 kts | 246° |
| 2026-05-05 12:03 | 49.04377 | 2.43680 | 10498 ft | 339 kts | 246° |
| 2026-05-05 12:03 | 49.03433 | 2.40292 | 10833 ft | 353 kts | 246° |
| 2026-05-05 12:03 | 49.02483 | 2.36807 | 11327 ft | 357 kts | 250° |
| 2026-05-05 12:03 | 49.02056 | 2.33072 | 11676 ft | 362 kts | 271° |
| 2026-05-05 12:04 | 49.02178 | 2.29204 | 12205 ft | 368 kts | 272° |
| 2026-05-05 12:04 | 49.02278 | 2.25299 | 12993 ft | 370 kts | 271° |
| 2026-05-05 12:04 | 49.02352 | 2.21374 | 13770 ft | 372 kts | 271° |
| 2026-05-05 12:04 | 49.02416 | 2.17416 | 14450 ft | 376 kts | 271° |
| 2026-05-05 12:05 | 49.02470 | 2.13417 | 15095 ft | 380 kts | 270° |
| 2026-05-05 12:05 | 49.02518 | 2.09368 | 15753 ft | 384 kts | 270° |
| 2026-05-05 12:05 | 49.02565 | 2.05292 | 16397 ft | 387 kts | 270° |
| 2026-05-05 12:05 | 49.02611 | 2.01178 | 17029 ft | 390 kts | 270° |
| 2026-05-05 12:06 | 49.02656 | 1.97064 | 17620 ft | 394 kts | 270° |
| 2026-05-05 12:06 | 49.02699 | 1.92834 | 18214 ft | 397 kts | 270° |
| 2026-05-05 12:06 | 49.02741 | 1.88610 | 18782 ft | 401 kts | 270° |
| 2026-05-05 12:06 | 49.02782 | 1.84347 | 19340 ft | 404 kts | 270° |
| 2026-05-05 12:07 | 49.02821 | 1.80048 | 19882 ft | 407 kts | 270° |
| 2026-05-05 12:07 | 49.02860 | 1.75717 | 20408 ft | 410 kts | 270° |
| 2026-05-05 12:07 | 49.02896 | 1.71371 | 20990 ft | 411 kts | 270° |
| 2026-05-05 12:07 | 49.02932 | 1.66997 | 21500 ft | 414 kts | 270° |
| 2026-05-05 12:08 | 49.02966 | 1.62589 | 21957 ft | 418 kts | 270° |
| 2026-05-05 12:08 | 49.03000 | 1.58199 | 22417 ft | 422 kts | 270° |
| 2026-05-05 12:08 | 49.03030 | 1.53705 | 22898 ft | 425 kts | 270° |
| 2026-05-05 12:08 | 49.03058 | 1.49122 | 23407 ft | 428 kts | 270° |
| 2026-05-05 12:09 | 49.03086 | 1.44639 | 23885 ft | 431 kts | 270° |
| 2026-05-05 12:09 | 49.03113 | 1.40058 | 24341 ft | 434 kts | 270° |
| 2026-05-05 12:09 | 49.03138 | 1.35440 | 24798 ft | 437 kts | 270° |
| 2026-05-05 12:09 | 49.03162 | 1.30793 | 25238 ft | 440 kts | 270° |
| 2026-05-05 12:10 | 49.03184 | 1.26121 | 25664 ft | 443 kts | 270° |
| 2026-05-05 12:10 | 49.03204 | 1.21418 | 26076 ft | 445 kts | 270° |
| 2026-05-05 12:10 | 49.03286 | 1.16690 | 26463 ft | 448 kts | 271° |
| 2026-05-05 12:10 | 49.03431 | 1.11925 | 26846 ft | 451 kts | 272° |
| 2026-05-05 12:11 | 49.03601 | 1.07140 | 27232 ft | 453 kts | 272° |
| 2026-05-05 12:11 | 49.03770 | 1.02334 | 27578 ft | 455 kts | 272° |
| 2026-05-05 12:11 | 49.03933 | 0.97507 | 27921 ft | 458 kts | 272° |
| 2026-05-05 12:11 | 49.04085 | 0.92653 | 28236 ft | 460 kts | 272° |
| 2026-05-05 12:12 | 49.04231 | 0.87766 | 28551 ft | 462 kts | 272° |
| 2026-05-05 12:12 | 49.04371 | 0.82862 | 28859 ft | 465 kts | 271° |
| 2026-05-05 12:12 | 49.04509 | 0.77931 | 29166 ft | 467 kts | 271° |
| 2026-05-05 12:12 | 49.04645 | 0.72978 | 29461 ft | 468 kts | 271° |
| 2026-05-05 12:13 | 49.04779 | 0.68009 | 29737 ft | 471 kts | 271° |
| 2026-05-05 12:13 | 49.04911 | 0.63020 | 30007 ft | 472 kts | 271° |
| 2026-05-05 12:13 | 49.05041 | 0.58006 | 30286 ft | 474 kts | 271° |
| 2026-05-05 12:13 | 49.05170 | 0.52985 | 30558 ft | 475 kts | 271° |
| 2026-05-05 12:14 | 49.05296 | 0.47948 | 30798 ft | 476 kts | 271° |
| 2026-05-05 12:14 | 49.05422 | 0.42892 | 31021 ft | 478 kts | 271° |
| 2026-05-05 12:14 | 49.05548 | 0.37817 | 31236 ft | 480 kts | 271° |
| 2026-05-05 12:14 | 49.05671 | 0.32723 | 31447 ft | 481 kts | 271° |
| 2026-05-05 12:15 | 49.05789 | 0.27626 | 31636 ft | 482 kts | 271° |
| 2026-05-05 12:15 | 49.05907 | 0.22505 | 31864 ft | 483 kts | 271° |
| 2026-05-05 12:15 | 49.06023 | 0.17456 | 32129 ft | 482 kts | 271° |
| 2026-05-05 12:15 | 49.06139 | 0.12287 | 32422 ft | 481 kts | 271° |
| 2026-05-05 12:16 | 49.06250 | 0.07189 | 32690 ft | 480 kts | 270° |
| 2026-05-05 12:16 | 49.06356 | 0.02174 | 32945 ft | 480 kts | 270° |
| 2026-05-05 12:16 | 49.06463 | -0.02899 | 33204 ft | 479 kts | 270° |
| 2026-05-05 12:16 | 49.06566 | -0.07976 | 33442 ft | 479 kts | 271° |
| 2026-05-05 12:17 | 49.06670 | -0.13042 | 33694 ft | 478 kts | 271° |
| 2026-05-05 12:17 | 49.06770 | -0.18107 | 33836 ft | 479 kts | 271° |
| 2026-05-05 12:17 | 49.06960 | -0.28265 | 33905 ft | 478 kts | 271° |
| 2026-05-05 12:18 | 49.07147 | -0.38377 | 33903 ft | 476 kts | 270° |
| 2026-05-05 12:18 | 49.07324 | -0.48460 | 33909 ft | 475 kts | 270° |
| 2026-05-05 12:19 | 49.07491 | -0.58525 | 33915 ft | 474 kts | 270° |
| 2026-05-05 12:19 | 49.07650 | -0.68584 | 33919 ft | 475 kts | 270° |
| 2026-05-05 12:20 | 49.07798 | -0.78655 | 33917 ft | 475 kts | 270° |
| 2026-05-05 12:20 | 49.07939 | -0.88670 | 33917 ft | 476 kts | 270° |
| 2026-05-05 12:21 | 49.08073 | -0.98764 | 33921 ft | 476 kts | 270° |
| 2026-05-05 12:21 | 49.08198 | -1.08870 | 33925 ft | 476 kts | 270° |
| 2026-05-05 12:22 | 49.08558 | -1.18948 | 33927 ft | 477 kts | 277° |
| 2026-05-05 12:22 | 49.10011 | -1.28818 | 33940 ft | 477 kts | 283° |
| 2026-05-05 12:23 | 49.11658 | -1.38634 | 33934 ft | 478 kts | 283° |
| 2026-05-05 12:23 | 49.13262 | -1.48483 | 33937 ft | 478 kts | 283° |
| 2026-05-05 12:24 | 49.14838 | -1.58346 | 33950 ft | 478 kts | 283° |
| 2026-05-05 12:24 | 49.16400 | -1.68207 | 33953 ft | 477 kts | 283° |
| 2026-05-05 12:25 | 49.17957 | -1.78066 | 33968 ft | 477 kts | 283° |
| 2026-05-05 12:25 | 49.19504 | -1.87918 | 33967 ft | 477 kts | 282° |
| 2026-05-05 12:26 | 49.21041 | -1.97770 | 33967 ft | 476 kts | 282° |
| 2026-05-05 12:26 | 49.22576 | -2.07571 | 33959 ft | 477 kts | 283° |
| 2026-05-05 12:27 | 49.24251 | -2.17375 | 33938 ft | 476 kts | 284° |
| 2026-05-05 12:27 | 49.25958 | -2.27175 | 33951 ft | 476 kts | 284° |
| 2026-05-05 12:28 | 49.27637 | -2.36966 | 33950 ft | 476 kts | 284° |
| 2026-05-05 12:28 | 49.29018 | -2.45124 | 33945 ft | 476 kts | 283° |
| 2026-05-05 12:29 | 49.30667 | -2.54937 | 33958 ft | 476 kts | 283° |
| 2026-05-05 12:29 | 49.32311 | -2.64763 | 33960 ft | 476 kts | 283° |
| 2026-05-05 12:30 | 49.33945 | -2.74583 | 33963 ft | 476 kts | 283° |
| 2026-05-05 12:30 | 49.35573 | -2.84421 | 33962 ft | 476 kts | 283° |
| 2026-05-05 12:31 | 49.37192 | -2.94265 | 33967 ft | 476 kts | 283° |
| 2026-05-05 12:31 | 49.38800 | -3.04117 | 33962 ft | 476 kts | 283° |
| 2026-05-05 12:32 | 49.40401 | -3.13975 | 33966 ft | 476 kts | 283° |
| 2026-05-05 12:32 | 49.41993 | -3.23832 | 33962 ft | 476 kts | 283° |
| 2026-05-05 12:33 | 49.43577 | -3.33699 | 33966 ft | 476 kts | 283° |
| 2026-05-05 12:33 | 49.45152 | -3.43571 | 33972 ft | 476 kts | 283° |
| 2026-05-05 12:34 | 49.46720 | -3.53442 | 33978 ft | 475 kts | 283° |
| 2026-05-05 12:34 | 49.48277 | -3.63309 | 33982 ft | 475 kts | 283° |
| 2026-05-05 12:35 | 49.49824 | -3.73178 | 33980 ft | 475 kts | 283° |
| 2026-05-05 12:35 | 49.51359 | -3.83046 | 33980 ft | 474 kts | 283° |
| 2026-05-05 12:36 | 49.52888 | -3.92916 | 33992 ft | 474 kts | 283° |
| 2026-05-05 12:36 | 49.54410 | -4.02786 | 33992 ft | 474 kts | 283° |
| 2026-05-05 12:37 | 49.55916 | -4.12651 | 33992 ft | 473 kts | 283° |
| 2026-05-05 12:37 | 49.57418 | -4.22507 | 33990 ft | 473 kts | 283° |
| 2026-05-05 12:38 | 49.59005 | -4.32293 | 33988 ft | 473 kts | 287° |
| 2026-05-05 12:38 | 49.61592 | -4.41616 | 33992 ft | 473 kts | 296° |
| 2026-05-05 12:39 | 49.64497 | -4.50726 | 34001 ft | 473 kts | 296° |
| 2026-05-05 12:39 | 49.67373 | -4.59862 | 34009 ft | 473 kts | 295° |
| 2026-05-05 12:40 | 49.70221 | -4.69031 | 34009 ft | 474 kts | 295° |
| 2026-05-05 12:40 | 49.73059 | -4.78245 | 34007 ft | 474 kts | 295° |
| 2026-05-05 12:41 | 49.75888 | -4.87462 | 34011 ft | 475 kts | 295° |
| 2026-05-05 12:41 | 49.78717 | -4.96698 | 34017 ft | 475 kts | 295° |
| 2026-05-05 12:42 | 49.81539 | -5.05948 | 34022 ft | 475 kts | 295° |
| 2026-05-05 12:42 | 49.84354 | -5.15207 | 34023 ft | 475 kts | 295° |
| 2026-05-05 12:43 | 49.87143 | -5.24422 | 34025 ft | 475 kts | 295° |
| 2026-05-05 12:43 | 49.89958 | -5.33765 | 34026 ft | 475 kts | 295° |
| 2026-05-05 12:44 | 49.92733 | -5.43004 | 34018 ft | 475 kts | 295° |
| 2026-05-05 12:44 | 49.95520 | -5.52309 | 34018 ft | 475 kts | 295° |
| 2026-05-05 12:45 | 49.98297 | -5.61621 | 34026 ft | 475 kts | 294° |
| 2026-05-05 12:45 | 50.01064 | -5.70944 | 34023 ft | 475 kts | 294° |
| 2026-05-05 12:46 | 50.03824 | -5.80273 | 34024 ft | 475 kts | 294° |
| 2026-05-05 12:46 | 50.06578 | -5.89618 | 34025 ft | 475 kts | 294° |
| 2026-05-05 12:47 | 50.09323 | -5.98965 | 34030 ft | 474 kts | 294° |
| 2026-05-05 12:47 | 50.12058 | -6.08318 | 34034 ft | 474 kts | 294° |
| 2026-05-05 12:48 | 50.14781 | -6.17665 | 34046 ft | 474 kts | 294° |
| 2026-05-05 12:48 | 50.17480 | -6.26965 | 34045 ft | 474 kts | 294° |
| 2026-05-05 12:49 | 50.20190 | -6.36340 | 34051 ft | 474 kts | 294° |
| 2026-05-05 12:49 | 50.22891 | -6.45737 | 34047 ft | 474 kts | 294° |
| 2026-05-05 12:50 | 50.25584 | -6.55135 | 34045 ft | 474 kts | 294° |
| 2026-05-05 12:50 | 50.28275 | -6.64536 | 34048 ft | 474 kts | 294° |
| 2026-05-05 12:51 | 50.30952 | -6.73953 | 34055 ft | 474 kts | 294° |
| 2026-05-05 12:51 | 50.33621 | -6.83370 | 34057 ft | 473 kts | 294° |
| 2026-05-05 12:52 | 50.36284 | -6.92802 | 34055 ft | 473 kts | 294° |
| 2026-05-05 12:52 | 50.38934 | -7.02222 | 34055 ft | 473 kts | 294° |
| 2026-05-05 12:53 | 50.41574 | -7.11654 | 34057 ft | 473 kts | 294° |
| 2026-05-05 12:53 | 50.44211 | -7.21105 | 34064 ft | 473 kts | 294° |
| 2026-05-05 12:54 | 50.48128 | -7.35227 | 34063 ft | 472 kts | 294° |
| 2026-05-05 12:55 | 50.50740 | -7.44693 | 34072 ft | 472 kts | 294° |
| 2026-05-05 12:55 | 50.53348 | -7.54167 | 34076 ft | 472 kts | 294° |
| 2026-05-05 12:56 | 50.55946 | -7.63657 | 34074 ft | 472 kts | 294° |
| 2026-05-05 12:56 | 50.58535 | -7.73160 | 34072 ft | 472 kts | 294° |
| 2026-05-05 12:57 | 50.61119 | -7.82662 | 34083 ft | 472 kts | 294° |
| 2026-05-05 12:57 | 50.63693 | -7.92172 | 34089 ft | 472 kts | 294° |
| 2026-05-05 12:58 | 50.66333 | -8.01637 | 34088 ft | 471 kts | 298° |
| 2026-05-05 12:58 | 50.69564 | -8.10625 | 34076 ft | 471 kts | 301° |
| 2026-05-05 12:59 | 50.72843 | -8.19565 | 34087 ft | 471 kts | 301° |
| 2026-05-05 12:59 | 50.76071 | -8.28466 | 34084 ft | 470 kts | 300° |
| 2026-05-05 13:00 | 50.80902 | -8.41948 | 34093 ft | 470 kts | 300° |
| 2026-05-05 13:01 | 50.87307 | -8.59974 | 34089 ft | 469 kts | 300° |
| 2026-05-05 13:01 | 50.90498 | -8.68985 | 34092 ft | 469 kts | 300° |
| 2026-05-05 13:02 | 50.93677 | -8.77999 | 34087 ft | 468 kts | 300° |
| 2026-05-05 13:02 | 50.96846 | -8.87029 | 34097 ft | 468 kts | 300° |
| 2026-05-05 13:03 | 51.00007 | -8.96062 | 34097 ft | 468 kts | 300° |
| 2026-05-05 13:03 | 51.03161 | -9.05102 | 34101 ft | 468 kts | 299° |
| 2026-05-05 13:04 | 51.06302 | -9.14143 | 34101 ft | 467 kts | 299° |
| 2026-05-05 13:04 | 51.09418 | -9.23133 | 34104 ft | 467 kts | 299° |
| 2026-05-05 13:05 | 51.12546 | -9.32196 | 34100 ft | 467 kts | 299° |
| 2026-05-05 13:05 | 51.15664 | -9.41267 | 34102 ft | 467 kts | 299° |
| 2026-05-05 13:06 | 51.18777 | -9.50354 | 34102 ft | 467 kts | 299° |
| 2026-05-05 13:06 | 51.21886 | -9.59455 | 34092 ft | 467 kts | 299° |
| 2026-05-05 13:07 | 51.24980 | -9.68557 | 34092 ft | 466 kts | 299° |
| 2026-05-05 13:07 | 51.28068 | -9.77668 | 34102 ft | 466 kts | 298° |
| 2026-05-05 13:08 | 51.31144 | -9.86776 | 34102 ft | 465 kts | 298° |
| 2026-05-05 13:08 | 51.34205 | -9.95885 | 34101 ft | 465 kts | 298° |
| 2026-05-05 13:09 | 51.37265 | -10.05011 | 34102 ft | 465 kts | 298° |
| 2026-05-05 13:09 | 51.40312 | -10.14133 | 34102 ft | 464 kts | 298° |
| 2026-05-05 13:10 | 51.43351 | -10.23265 | 34101 ft | 464 kts | 298° |
| 2026-05-05 13:10 | 51.46379 | -10.32400 | 34102 ft | 464 kts | 298° |
| 2026-05-05 13:11 | 51.49401 | -10.41546 | 34102 ft | 464 kts | 298° |
| 2026-05-05 13:11 | 51.52418 | -10.50706 | 34102 ft | 464 kts | 298° |
| 2026-05-05 13:12 | 51.55425 | -10.59889 | 34101 ft | 464 kts | 298° |
| 2026-05-05 13:12 | 51.58430 | -10.69087 | 34103 ft | 465 kts | 298° |
| 2026-05-05 13:13 | 51.61410 | -10.78241 | 34102 ft | 465 kts | 298° |
| 2026-05-05 13:13 | 51.64403 | -10.87469 | 34102 ft | 465 kts | 297° |
| 2026-05-05 13:14 | 51.67386 | -10.96709 | 34100 ft | 465 kts | 297° |
| 2026-05-05 13:14 | 51.70363 | -11.05951 | 34102 ft | 465 kts | 297° |
| 2026-05-05 13:15 | 51.73330 | -11.15214 | 34101 ft | 464 kts | 297° |
| 2026-05-05 13:15 | 51.76289 | -11.24473 | 34102 ft | 464 kts | 297° |
| 2026-05-05 13:16 | 51.79238 | -11.33739 | 34102 ft | 464 kts | 297° |
| 2026-05-05 13:16 | 51.82179 | -11.43013 | 34102 ft | 464 kts | 297° |
| 2026-05-05 13:17 | 51.84622 | -11.50743 | 34101 ft | 464 kts | 297° |
| 2026-05-05 13:17 | 51.87547 | -11.60032 | 34102 ft | 463 kts | 297° |
| 2026-05-05 13:18 | 51.90935 | -11.70844 | 34102 ft | 464 kts | 297° |
| 2026-05-05 13:18 | 51.93374 | -11.78654 | 34102 ft | 463 kts | 296° |
| 2026-05-05 13:19 | 51.96277 | -11.87983 | 34101 ft | 463 kts | 296° |
| 2026-05-05 13:19 | 51.99172 | -11.97316 | 34101 ft | 463 kts | 296° |
| 2026-05-05 13:20 | 52.02221 | -12.06520 | 34104 ft | 463 kts | 299° |
| 2026-05-05 13:20 | 52.05441 | -12.15572 | 34101 ft | 463 kts | 300° |
| 2026-05-05 13:21 | 52.08643 | -12.24582 | 34102 ft | 463 kts | 300° |
| 2026-05-05 13:21 | 52.11842 | -12.33680 | 34102 ft | 463 kts | 299° |
| 2026-05-05 13:22 | 52.15022 | -12.42792 | 34102 ft | 463 kts | 299° |
| 2026-05-05 13:22 | 52.18190 | -12.51925 | 34102 ft | 463 kts | 299° |
| 2026-05-05 13:23 | 52.21349 | -12.61062 | 34102 ft | 463 kts | 299° |
| 2026-05-05 13:23 | 52.24502 | -12.70214 | 34105 ft | 462 kts | 299° |
| 2026-05-05 13:24 | 52.27648 | -12.79362 | 34111 ft | 462 kts | 299° |
| 2026-05-05 13:24 | 52.30782 | -12.88528 | 34185 ft | 464 kts | 299° |
| 2026-05-05 13:25 | 52.32354 | -12.93136 | 34423 ft | 463 kts | 299° |
| 2026-05-05 13:25 | 52.33917 | -12.97728 | 34712 ft | 462 kts | 299° |
| 2026-05-05 13:25 | 52.35475 | -13.02317 | 34948 ft | 461 kts | 299° |
| 2026-05-05 13:25 | 52.37032 | -13.06903 | 35158 ft | 461 kts | 299° |
| 2026-05-05 13:26 | 52.38589 | -13.11497 | 35362 ft | 461 kts | 299° |
| 2026-05-05 13:26 | 52.40145 | -13.16095 | 35545 ft | 462 kts | 299° |
| 2026-05-05 13:26 | 52.41700 | -13.20702 | 35727 ft | 462 kts | 298° |
| 2026-05-05 13:26 | 52.43254 | -13.25310 | 35911 ft | 462 kts | 298° |
| 2026-05-05 13:27 | 52.44807 | -13.29926 | 36022 ft | 463 kts | 298° |
| 2026-05-05 13:27 | 52.46359 | -13.34553 | 36068 ft | 463 kts | 298° |
| 2026-05-05 13:27 | 52.49453 | -13.43803 | 36112 ft | 462 kts | 298° |
| 2026-05-05 13:28 | 52.52520 | -13.53001 | 36114 ft | 463 kts | 298° |
| 2026-05-05 13:28 | 52.55601 | -13.62281 | 36115 ft | 463 kts | 298° |
| 2026-05-05 13:29 | 52.58679 | -13.71583 | 36110 ft | 463 kts | 298° |
| 2026-05-05 13:29 | 52.61750 | -13.80897 | 36115 ft | 463 kts | 298° |
| 2026-05-05 13:30 | 52.64815 | -13.90217 | 36109 ft | 463 kts | 298° |
| 2026-05-05 13:30 | 52.67865 | -13.99554 | 36112 ft | 463 kts | 298° |
| 2026-05-05 13:31 | 52.70908 | -14.08897 | 36111 ft | 462 kts | 298° |
| 2026-05-05 13:31 | 52.73948 | -14.18253 | 36111 ft | 462 kts | 298° |
| 2026-05-05 13:32 | 52.76974 | -14.27604 | 36110 ft | 462 kts | 298° |
| 2026-05-05 13:32 | 52.79994 | -14.36976 | 36111 ft | 462 kts | 298° |
| 2026-05-05 13:33 | 52.82986 | -14.46298 | 36111 ft | 462 kts | 297° |
| 2026-05-05 13:33 | 52.85988 | -14.55689 | 36110 ft | 461 kts | 297° |
| 2026-05-05 13:34 | 52.88981 | -14.65085 | 36108 ft | 461 kts | 297° |
| 2026-05-05 13:34 | 52.91965 | -14.74490 | 36113 ft | 461 kts | 297° |
| 2026-05-05 13:35 | 52.94942 | -14.83908 | 36113 ft | 461 kts | 297° |
| 2026-05-05 13:35 | 52.97910 | -14.93333 | 36109 ft | 461 kts | 297° |
| 2026-05-05 13:36 | 53.00724 | -15.02888 | 36107 ft | 461 kts | 291° |
| 2026-05-05 13:36 | 53.02959 | -15.12848 | 36117 ft | 460 kts | 290° |
| 2026-05-05 13:37 | 53.05154 | -15.22835 | 36107 ft | 460 kts | 290° |
| 2026-05-05 13:37 | 53.07365 | -15.32833 | 36110 ft | 461 kts | 290° |
| 2026-05-05 13:38 | 53.09563 | -15.42759 | 36123 ft | 461 kts | 290° |
| 2026-05-05 13:38 | 53.11775 | -15.52763 | 36118 ft | 461 kts | 290° |
| 2026-05-05 13:39 | 53.13978 | -15.62781 | 36118 ft | 461 kts | 290° |
| 2026-05-05 13:39 | 53.16172 | -15.72811 | 36120 ft | 461 kts | 290° |
| 2026-05-05 13:40 | 53.18357 | -15.82847 | 36124 ft | 461 kts | 289° |
| 2026-05-05 13:40 | 53.20534 | -15.92898 | 36123 ft | 461 kts | 289° |
| 2026-05-05 13:41 | 53.22705 | -16.02967 | 36120 ft | 461 kts | 289° |
| 2026-05-05 13:41 | 53.24866 | -16.13051 | 36125 ft | 461 kts | 289° |
| 2026-05-05 13:42 | 53.27020 | -16.23131 | 36116 ft | 461 kts | 289° |
| 2026-05-05 13:42 | 53.29163 | -16.33229 | 36123 ft | 461 kts | 289° |
| 2026-05-05 13:43 | 53.31299 | -16.43326 | 36115 ft | 461 kts | 289° |
| 2026-05-05 13:43 | 53.33426 | -16.53442 | 36115 ft | 461 kts | 289° |
| 2026-05-05 13:44 | 53.35546 | -16.63568 | 36120 ft | 461 kts | 289° |
| 2026-05-05 13:44 | 53.37642 | -16.73638 | 36117 ft | 461 kts | 289° |
| 2026-05-05 13:45 | 53.39743 | -16.83788 | 36126 ft | 461 kts | 289° |
| 2026-05-05 13:45 | 53.41837 | -16.93945 | 36119 ft | 461 kts | 288° |
| 2026-05-05 13:46 | 53.43924 | -17.04118 | 36127 ft | 461 kts | 288° |
| 2026-05-05 13:46 | 53.46003 | -17.14309 | 36129 ft | 462 kts | 288° |
| 2026-05-05 13:47 | 53.48071 | -17.24504 | 36135 ft | 461 kts | 288° |
| 2026-05-05 13:47 | 53.50131 | -17.34713 | 36125 ft | 461 kts | 288° |
| 2026-05-05 13:48 | 53.52183 | -17.44935 | 36127 ft | 462 kts | 288° |
| 2026-05-05 13:48 | 53.54230 | -17.55164 | 36137 ft | 462 kts | 288° |
| 2026-05-05 13:49 | 53.56266 | -17.65409 | 36126 ft | 462 kts | 288° |
| 2026-05-05 13:49 | 53.58281 | -17.75604 | 36125 ft | 462 kts | 288° |
| 2026-05-05 13:50 | 53.60303 | -17.85877 | 36130 ft | 462 kts | 288° |
| 2026-05-05 13:50 | 53.62311 | -17.96155 | 36129 ft | 462 kts | 287° |
| 2026-05-05 13:51 | 53.64312 | -18.06443 | 36128 ft | 462 kts | 287° |
| 2026-05-05 13:51 | 53.66309 | -18.16755 | 36125 ft | 463 kts | 287° |
| 2026-05-05 13:52 | 53.68293 | -18.27076 | 36131 ft | 463 kts | 287° |
| 2026-05-05 13:52 | 53.70275 | -18.37415 | 36136 ft | 463 kts | 287° |
| 2026-05-05 13:53 | 53.72244 | -18.47757 | 36127 ft | 463 kts | 287° |
| 2026-05-05 13:53 | 53.74192 | -18.58024 | 36127 ft | 462 kts | 287° |
| 2026-05-05 13:54 | 53.76152 | -18.68446 | 36131 ft | 462 kts | 287° |
| 2026-05-05 13:54 | 53.78090 | -18.78806 | 36127 ft | 462 kts | 287° |
| 2026-05-05 13:55 | 53.80009 | -18.89110 | 36130 ft | 462 kts | 287° |
| 2026-05-05 13:55 | 53.81935 | -18.99494 | 36143 ft | 463 kts | 287° |
| 2026-05-05 13:56 | 53.83851 | -19.09902 | 36128 ft | 463 kts | 287° |
| 2026-05-05 13:56 | 53.85760 | -19.20340 | 36126 ft | 464 kts | 287° |
| 2026-05-05 13:57 | 53.87666 | -19.30787 | 36140 ft | 464 kts | 287° |
| 2026-05-05 13:57 | 53.89563 | -19.41252 | 36146 ft | 465 kts | 287° |
| 2026-05-05 13:58 | 53.91451 | -19.51746 | 36145 ft | 465 kts | 287° |
| 2026-05-05 13:58 | 53.93332 | -19.62256 | 36135 ft | 466 kts | 287° |
| 2026-05-05 13:59 | 53.96127 | -19.77991 | 36146 ft | 466 kts | 286° |
| 2026-05-05 14:00 | 53.98620 | -19.92105 | 36141 ft | 467 kts | 286° |
| 2026-05-05 14:00 | 54.00267 | -20.04582 | 36141 ft | 466 kts | 275° |
| 2026-05-05 14:01 | 54.00695 | -20.15585 | 36145 ft | 466 kts | 273° |
| 2026-05-05 14:01 | 54.01087 | -20.26586 | 36148 ft | 466 kts | 274° |
| 2026-05-05 14:02 | 54.01497 | -20.37621 | 36159 ft | 468 kts | 274° |
| 2026-05-05 14:02 | 54.01917 | -20.48656 | 36188 ft | 467 kts | 274° |
| 2026-05-05 14:03 | 54.02329 | -20.59689 | 36197 ft | 468 kts | 274° |
| 2026-05-05 14:03 | 54.02721 | -20.70740 | 36196 ft | 467 kts | 274° |
| 2026-05-05 14:04 | 54.03114 | -20.81776 | 36195 ft | 467 kts | 274° |
| 2026-05-05 14:04 | 54.03495 | -20.92811 | 36202 ft | 467 kts | 274° |
| 2026-05-05 14:05 | 54.03863 | -21.03851 | 36204 ft | 467 kts | 274° |
| 2026-05-05 14:05 | 54.04216 | -21.14823 | 36202 ft | 468 kts | 273° |
| 2026-05-05 14:06 | 54.04567 | -21.25879 | 36204 ft | 468 kts | 273° |
| 2026-05-05 14:06 | 54.04906 | -21.36952 | 36204 ft | 468 kts | 273° |
| 2026-05-05 14:07 | 54.05237 | -21.48019 | 36203 ft | 469 kts | 273° |
| 2026-05-05 14:07 | 54.05555 | -21.59107 | 36204 ft | 469 kts | 273° |
| 2026-05-05 14:08 | 54.05814 | -21.68407 | 36203 ft | 470 kts | 273° |
| 2026-05-05 14:08 | 54.06115 | -21.79537 | 36205 ft | 470 kts | 273° |
| 2026-05-05 14:09 | 54.06404 | -21.90580 | 36203 ft | 471 kts | 273° |
| 2026-05-05 14:09 | 54.06686 | -22.01712 | 36205 ft | 471 kts | 273° |
| 2026-05-05 14:10 | 54.06955 | -22.12852 | 36202 ft | 471 kts | 272° |
| 2026-05-05 14:10 | 54.07214 | -22.23997 | 36209 ft | 471 kts | 272° |
| 2026-05-05 14:11 | 54.07465 | -22.35149 | 36213 ft | 471 kts | 272° |
| 2026-05-05 14:11 | 54.07708 | -22.46293 | 36213 ft | 471 kts | 272° |
| 2026-05-05 14:12 | 54.07935 | -22.57440 | 36212 ft | 471 kts | 272° |
| 2026-05-05 14:12 | 54.08152 | -22.68590 | 36217 ft | 471 kts | 272° |
| 2026-05-05 14:13 | 54.08363 | -22.79724 | 36228 ft | 470 kts | 272° |
| 2026-05-05 14:13 | 54.08564 | -22.90865 | 36233 ft | 470 kts | 272° |
| 2026-05-05 14:14 | 54.08753 | -23.01998 | 36228 ft | 470 kts | 272° |
| 2026-05-05 14:14 | 54.08928 | -23.13057 | 36229 ft | 470 kts | 272° |
| 2026-05-05 14:15 | 54.09094 | -23.24183 | 36229 ft | 469 kts | 272° |
| 2026-05-05 14:15 | 54.09251 | -23.35291 | 36230 ft | 469 kts | 272° |
| 2026-05-05 14:16 | 54.09399 | -23.46407 | 36232 ft | 469 kts | 272° |
| 2026-05-05 14:16 | 54.09535 | -23.57524 | 36232 ft | 470 kts | 272° |
| 2026-05-05 14:17 | 54.09660 | -23.68664 | 36251 ft | 470 kts | 272° |
| 2026-05-05 14:17 | 54.09776 | -23.79793 | 36259 ft | 470 kts | 272° |
| 2026-05-05 14:18 | 54.09882 | -23.90934 | 36262 ft | 470 kts | 272° |
| 2026-05-05 14:18 | 54.09979 | -24.02070 | 36283 ft | 470 kts | 272° |
| 2026-05-05 14:19 | 54.10064 | -24.13214 | 36287 ft | 470 kts | 272° |
| 2026-05-05 14:19 | 54.10137 | -24.24376 | 36285 ft | 471 kts | 272° |
| 2026-05-05 14:20 | 54.10203 | -24.35532 | 36287 ft | 471 kts | 271° |
| 2026-05-05 14:20 | 54.10258 | -24.46640 | 36293 ft | 471 kts | 271° |
| 2026-05-05 14:21 | 54.10304 | -24.57809 | 36295 ft | 471 kts | 271° |
| 2026-05-05 14:21 | 54.10335 | -24.68980 | 36295 ft | 471 kts | 271° |
| 2026-05-05 14:22 | 54.10360 | -24.80146 | 36295 ft | 472 kts | 271° |
| 2026-05-05 14:22 | 54.10372 | -24.91317 | 36294 ft | 471 kts | 271° |
| 2026-05-05 14:23 | 54.10376 | -25.02489 | 36294 ft | 471 kts | 271° |
| 2026-05-05 14:23 | 54.10368 | -25.13667 | 36298 ft | 472 kts | 271° |
| 2026-05-05 14:24 | 54.10350 | -25.24843 | 36296 ft | 471 kts | 271° |
| 2026-05-05 14:24 | 54.10322 | -25.36021 | 36311 ft | 472 kts | 271° |
| 2026-05-05 14:25 | 54.10285 | -25.47206 | 36299 ft | 472 kts | 271° |
| 2026-05-05 14:25 | 54.10235 | -25.58389 | 36319 ft | 472 kts | 271° |
| 2026-05-05 14:26 | 54.10176 | -25.69576 | 36301 ft | 472 kts | 271° |
| 2026-05-05 14:26 | 54.10107 | -25.80691 | 36305 ft | 472 kts | 271° |
| 2026-05-05 14:27 | 54.10026 | -25.91880 | 36339 ft | 471 kts | 270° |
| 2026-05-05 14:27 | 54.09934 | -26.03024 | 36392 ft | 470 kts | 270° |
| 2026-05-05 14:28 | 54.09833 | -26.14173 | 36394 ft | 471 kts | 270° |
| 2026-05-05 14:28 | 54.09725 | -26.25343 | 36397 ft | 472 kts | 270° |
| 2026-05-05 14:29 | 54.09604 | -26.36526 | 36392 ft | 472 kts | 270° |
| 2026-05-05 14:29 | 54.09468 | -26.47712 | 36401 ft | 473 kts | 270° |
| 2026-05-05 14:30 | 54.09330 | -26.58905 | 36395 ft | 473 kts | 270° |
| 2026-05-05 14:30 | 54.09179 | -26.70102 | 36397 ft | 473 kts | 270° |
| 2026-05-05 14:31 | 54.09016 | -26.81307 | 36406 ft | 473 kts | 270° |
| 2026-05-05 14:31 | 54.08840 | -26.92513 | 36410 ft | 473 kts | 270° |
| 2026-05-05 14:32 | 54.08655 | -27.03718 | 36412 ft | 473 kts | 270° |
| 2026-05-05 14:32 | 54.08462 | -27.14932 | 36418 ft | 473 kts | 270° |
| 2026-05-05 14:33 | 54.08255 | -27.26134 | 36415 ft | 473 kts | 270° |
| 2026-05-05 14:33 | 54.08042 | -27.37259 | 36422 ft | 473 kts | 270° |
| 2026-05-05 14:34 | 54.07819 | -27.48454 | 36424 ft | 473 kts | 270° |
| 2026-05-05 14:34 | 54.07582 | -27.59649 | 36425 ft | 473 kts | 270° |
| 2026-05-05 14:35 | 54.07335 | -27.70855 | 36422 ft | 473 kts | 270° |
| 2026-05-05 14:35 | 54.07081 | -27.82050 | 36424 ft | 473 kts | 270° |
| 2026-05-05 14:36 | 54.06811 | -27.93240 | 36425 ft | 473 kts | 270° |
| 2026-05-05 14:36 | 54.06532 | -28.04434 | 36422 ft | 473 kts | 269° |
| 2026-05-05 14:37 | 54.06245 | -28.15637 | 36415 ft | 473 kts | 269° |
| 2026-05-05 14:37 | 54.05946 | -28.26836 | 36415 ft | 473 kts | 269° |
| 2026-05-05 14:38 | 54.05640 | -28.38013 | 36415 ft | 472 kts | 269° |
| 2026-05-05 14:38 | 54.05319 | -28.49195 | 36416 ft | 473 kts | 269° |
| 2026-05-05 14:39 | 54.04989 | -28.60296 | 36411 ft | 473 kts | 269° |
| 2026-05-05 14:39 | 54.04652 | -28.71474 | 36412 ft | 473 kts | 269° |
| 2026-05-05 14:40 | 54.04302 | -28.82642 | 36414 ft | 473 kts | 269° |
| 2026-05-05 14:40 | 54.03943 | -28.93808 | 36414 ft | 473 kts | 269° |
| 2026-05-05 14:41 | 54.03574 | -29.04967 | 36414 ft | 473 kts | 269° |
| 2026-05-05 14:41 | 54.03191 | -29.16134 | 36416 ft | 472 kts | 269° |
| 2026-05-05 14:42 | 54.02801 | -29.27296 | 36418 ft | 473 kts | 269° |
| 2026-05-05 14:42 | 54.02398 | -29.38452 | 36421 ft | 472 kts | 269° |
| 2026-05-05 14:43 | 54.01991 | -29.49519 | 36420 ft | 472 kts | 269° |
| 2026-05-05 14:43 | 54.01569 | -29.60655 | 36420 ft | 472 kts | 269° |
| 2026-05-05 14:44 | 54.01139 | -29.71792 | 36422 ft | 472 kts | 269° |
| 2026-05-05 14:44 | 54.00697 | -29.82926 | 36422 ft | 472 kts | 269° |
| 2026-05-05 14:45 | 54.00248 | -29.94044 | 36427 ft | 471 kts | 269° |
| 2026-05-05 14:45 | 54.00122 | -30.05147 | 36421 ft | 468 kts | 276° |
| 2026-05-05 14:46 | 54.00592 | -30.16184 | 36425 ft | 468 kts | 277° |
| 2026-05-05 14:46 | 54.01077 | -30.27222 | 36423 ft | 468 kts | 277° |
| 2026-05-05 14:47 | 54.01526 | -30.38263 | 36423 ft | 468 kts | 276° |
| 2026-05-05 14:47 | 54.01950 | -30.49314 | 36422 ft | 468 kts | 276° |
| 2026-05-05 14:48 | 54.02357 | -30.60370 | 36423 ft | 468 kts | 276° |
| 2026-05-05 14:48 | 54.02755 | -30.71424 | 36421 ft | 468 kts | 276° |
| 2026-05-05 14:49 | 54.03140 | -30.82397 | 36424 ft | 468 kts | 276° |
| 2026-05-05 14:49 | 54.03517 | -30.93431 | 36421 ft | 467 kts | 275° |
| 2026-05-05 14:50 | 54.03885 | -31.04465 | 36421 ft | 467 kts | 275° |
| 2026-05-05 14:50 | 54.04245 | -31.15494 | 36420 ft | 466 kts | 275° |
| 2026-05-05 14:51 | 54.04590 | -31.26515 | 36359 ft | 467 kts | 275° |
| 2026-05-05 14:51 | 54.04927 | -31.37536 | 36343 ft | 466 kts | 275° |
| 2026-05-05 14:52 | 54.05253 | -31.48543 | 36338 ft | 465 kts | 275° |
| 2026-05-05 14:52 | 54.05566 | -31.59519 | 36338 ft | 464 kts | 275° |
| 2026-05-05 14:53 | 54.05873 | -31.70487 | 36342 ft | 463 kts | 275° |
| 2026-05-05 14:53 | 54.06165 | -31.81363 | 36338 ft | 463 kts | 275° |
| 2026-05-05 14:54 | 54.06449 | -31.92303 | 36341 ft | 462 kts | 274° |
| 2026-05-05 14:54 | 54.06724 | -32.03228 | 36337 ft | 462 kts | 274° |
| 2026-05-05 14:55 | 54.06988 | -32.14168 | 36327 ft | 462 kts | 274° |
| 2026-05-05 14:55 | 54.07242 | -32.25096 | 36335 ft | 462 kts | 274° |
| 2026-05-05 14:56 | 54.07487 | -32.36029 | 36335 ft | 462 kts | 274° |
| 2026-05-05 14:56 | 54.07723 | -32.46966 | 36334 ft | 462 kts | 274° |
| 2026-05-05 14:57 | 54.07947 | -32.57901 | 36326 ft | 462 kts | 274° |
| 2026-05-05 14:57 | 54.08163 | -32.68835 | 36337 ft | 462 kts | 274° |
| 2026-05-05 14:58 | 54.08367 | -32.79788 | 36335 ft | 463 kts | 273° |
| 2026-05-05 14:58 | 54.08528 | -32.88911 | 36330 ft | 463 kts | 273° |
| 2026-05-05 14:59 | 54.08714 | -32.99877 | 36327 ft | 463 kts | 273° |
| 2026-05-05 14:59 | 54.08923 | -33.12639 | 36335 ft | 464 kts | 273° |
| 2026-05-05 15:00 | 54.09063 | -33.21848 | 36335 ft | 464 kts | 272° |
| 2026-05-05 15:00 | 54.09220 | -33.32854 | 36335 ft | 465 kts | 272° |
| 2026-05-05 15:01 | 54.09367 | -33.43804 | 36334 ft | 465 kts | 272° |
| 2026-05-05 15:01 | 54.09504 | -33.54826 | 36327 ft | 465 kts | 272° |
| 2026-05-05 15:02 | 54.09633 | -33.65855 | 36330 ft | 465 kts | 272° |
| 2026-05-05 15:02 | 54.09750 | -33.76878 | 36337 ft | 465 kts | 271° |
| 2026-05-05 15:03 | 54.09856 | -33.87911 | 36333 ft | 466 kts | 271° |
| 2026-05-05 15:03 | 54.09953 | -33.98946 | 36318 ft | 465 kts | 271° |
| 2026-05-05 15:04 | 54.10041 | -34.09958 | 36323 ft | 465 kts | 271° |
| 2026-05-05 15:04 | 54.10117 | -34.20988 | 36324 ft | 465 kts | 271° |
| 2026-05-05 15:05 | 54.10217 | -34.37509 | 36317 ft | 465 kts | 271° |
| 2026-05-05 15:06 | 54.10266 | -34.48526 | 36318 ft | 465 kts | 271° |
| 2026-05-05 15:06 | 54.10309 | -34.59487 | 36318 ft | 465 kts | 271° |
| 2026-05-05 15:07 | 54.10342 | -34.70510 | 36327 ft | 465 kts | 270° |
| 2026-05-05 15:07 | 54.10365 | -34.81559 | 36322 ft | 466 kts | 270° |
| 2026-05-05 15:08 | 54.10377 | -34.92618 | 36326 ft | 467 kts | 269° |
| 2026-05-05 15:08 | 54.10379 | -35.03711 | 36322 ft | 469 kts | 269° |
| 2026-05-05 15:09 | 54.10368 | -35.14845 | 36330 ft | 471 kts | 269° |
| 2026-05-05 15:09 | 54.10348 | -35.26020 | 36321 ft | 473 kts | 269° |
| 2026-05-05 15:10 | 54.10322 | -35.37250 | 36324 ft | 474 kts | 268° |
| 2026-05-05 15:10 | 54.10282 | -35.48513 | 36318 ft | 476 kts | 268° |
| 2026-05-05 15:11 | 54.10229 | -35.59806 | 36326 ft | 477 kts | 268° |
| 2026-05-05 15:11 | 54.10167 | -35.71135 | 36327 ft | 478 kts | 268° |
| 2026-05-05 15:12 | 54.10095 | -35.82393 | 36326 ft | 479 kts | 268° |
| 2026-05-05 15:12 | 54.10013 | -35.93742 | 36311 ft | 479 kts | 268° |
| 2026-05-05 15:13 | 54.09920 | -36.05086 | 36307 ft | 479 kts | 267° |
| 2026-05-05 15:13 | 54.09815 | -36.16443 | 36304 ft | 479 kts | 267° |
| 2026-05-05 15:14 | 54.09701 | -36.27778 | 36311 ft | 478 kts | 267° |
| 2026-05-05 15:14 | 54.09575 | -36.39105 | 36306 ft | 478 kts | 267° |
| 2026-05-05 15:15 | 54.09439 | -36.50440 | 36258 ft | 479 kts | 267° |
| 2026-05-05 15:15 | 54.09292 | -36.61800 | 36169 ft | 480 kts | 267° |
| 2026-05-05 15:16 | 54.09134 | -36.73149 | 36140 ft | 479 kts | 267° |
| 2026-05-05 15:16 | 54.08967 | -36.84461 | 36132 ft | 477 kts | 266° |
| 2026-05-05 15:17 | 54.08790 | -36.95763 | 36130 ft | 477 kts | 266° |
| 2026-05-05 15:17 | 54.08603 | -37.07057 | 36142 ft | 477 kts | 266° |
| 2026-05-05 15:18 | 54.08404 | -37.18282 | 36144 ft | 478 kts | 266° |
| 2026-05-05 15:18 | 54.08190 | -37.29584 | 36210 ft | 477 kts | 266° |
| 2026-05-05 15:19 | 54.07968 | -37.40886 | 36212 ft | 478 kts | 266° |
| 2026-05-05 15:19 | 54.07738 | -37.52231 | 36215 ft | 480 kts | 265° |
| 2026-05-05 15:20 | 54.07498 | -37.63621 | 36213 ft | 482 kts | 265° |
| 2026-05-05 15:20 | 54.07241 | -37.75058 | 36205 ft | 484 kts | 265° |
| 2026-05-05 15:21 | 54.06972 | -37.86535 | 36202 ft | 485 kts | 265° |
| 2026-05-05 15:21 | 54.06692 | -37.98013 | 36204 ft | 486 kts | 265° |
| 2026-05-05 15:22 | 54.06403 | -38.09517 | 36203 ft | 486 kts | 265° |
| 2026-05-05 15:22 | 54.06103 | -38.21012 | 36203 ft | 486 kts | 265° |
| 2026-05-05 15:23 | 54.05791 | -38.32516 | 36202 ft | 486 kts | 265° |
| 2026-05-05 15:23 | 54.05472 | -38.43934 | 36201 ft | 485 kts | 265° |
| 2026-05-05 15:24 | 54.05139 | -38.55396 | 36200 ft | 485 kts | 265° |
| 2026-05-05 15:24 | 54.04794 | -38.66852 | 36187 ft | 485 kts | 265° |
| 2026-05-05 15:25 | 54.04439 | -38.78289 | 36195 ft | 484 kts | 264° |
| 2026-05-05 15:25 | 54.04076 | -38.89724 | 36192 ft | 484 kts | 264° |
| 2026-05-05 15:26 | 54.03702 | -39.01160 | 36191 ft | 484 kts | 264° |
| 2026-05-05 15:26 | 54.03314 | -39.12576 | 36193 ft | 484 kts | 264° |
| 2026-05-05 15:27 | 54.02919 | -39.23998 | 36195 ft | 483 kts | 264° |
| 2026-05-05 15:27 | 54.02510 | -39.35415 | 36191 ft | 484 kts | 264° |
| 2026-05-05 15:28 | 54.02091 | -39.46831 | 36190 ft | 484 kts | 264° |
| 2026-05-05 15:28 | 54.01660 | -39.58262 | 36185 ft | 484 kts | 264° |
| 2026-05-05 15:29 | 54.01223 | -39.69607 | 36187 ft | 484 kts | 264° |
| 2026-05-05 15:29 | 54.00773 | -39.81033 | 36182 ft | 484 kts | 264° |
| 2026-05-05 15:30 | 54.00312 | -39.92450 | 36183 ft | 484 kts | 264° |
| 2026-05-05 15:30 | 53.99822 | -40.03867 | 36186 ft | 484 kts | 263° |
| 2026-05-05 15:31 | 53.99177 | -40.15253 | 36181 ft | 484 kts | 262° |
| 2026-05-05 15:31 | 53.98481 | -40.26612 | 36189 ft | 483 kts | 262° |
| 2026-05-05 15:32 | 53.97788 | -40.37981 | 36177 ft | 484 kts | 262° |
| 2026-05-05 15:32 | 53.97099 | -40.49353 | 36176 ft | 484 kts | 262° |
| 2026-05-05 15:33 | 53.96405 | -40.60710 | 36179 ft | 483 kts | 262° |
| 2026-05-05 15:33 | 53.95701 | -40.72058 | 36176 ft | 483 kts | 262° |
| 2026-05-05 15:34 | 53.94985 | -40.83396 | 36174 ft | 483 kts | 262° |
| 2026-05-05 15:34 | 53.94265 | -40.94640 | 36176 ft | 482 kts | 262° |
| 2026-05-05 15:35 | 53.93529 | -41.05940 | 36175 ft | 482 kts | 262° |
| 2026-05-05 15:35 | 53.92783 | -41.17234 | 36177 ft | 481 kts | 261° |
| 2026-05-05 15:36 | 53.92028 | -41.28522 | 36168 ft | 481 kts | 261° |
| 2026-05-05 15:36 | 53.91260 | -41.39809 | 36165 ft | 481 kts | 261° |
| 2026-05-05 15:37 | 53.90485 | -41.51085 | 36166 ft | 482 kts | 261° |
| 2026-05-05 15:37 | 53.89697 | -41.62374 | 36165 ft | 482 kts | 261° |
| 2026-05-05 15:38 | 53.88893 | -41.73664 | 36166 ft | 483 kts | 261° |
| 2026-05-05 15:38 | 53.88082 | -41.84969 | 36167 ft | 483 kts | 261° |
| 2026-05-05 15:39 | 53.87261 | -41.96275 | 36168 ft | 483 kts | 261° |
| 2026-05-05 15:39 | 53.86428 | -42.07571 | 36160 ft | 484 kts | 261° |
| 2026-05-05 15:40 | 53.85587 | -42.18805 | 36159 ft | 484 kts | 261° |
| 2026-05-05 15:40 | 53.84728 | -42.30134 | 36155 ft | 485 kts | 261° |
| 2026-05-05 15:41 | 53.83863 | -42.41451 | 36157 ft | 485 kts | 261° |
| 2026-05-05 15:41 | 53.82985 | -42.52765 | 36157 ft | 484 kts | 260° |
| 2026-05-05 15:42 | 53.82097 | -42.64058 | 36157 ft | 484 kts | 260° |
| 2026-05-05 15:42 | 53.81199 | -42.75333 | 36155 ft | 483 kts | 260° |
| 2026-05-05 15:43 | 53.80293 | -42.86594 | 36158 ft | 483 kts | 260° |
| 2026-05-05 15:43 | 53.79377 | -42.97839 | 36149 ft | 483 kts | 260° |
| 2026-05-05 15:44 | 53.78448 | -43.09084 | 36148 ft | 482 kts | 260° |
| 2026-05-05 15:44 | 53.77512 | -43.20318 | 36147 ft | 483 kts | 260° |
| 2026-05-05 15:45 | 53.76563 | -43.31543 | 36147 ft | 482 kts | 260° |
| 2026-05-05 15:45 | 53.75604 | -43.42763 | 36148 ft | 482 kts | 259° |
| 2026-05-05 15:46 | 53.74636 | -43.53976 | 36148 ft | 483 kts | 259° |
| 2026-05-05 15:46 | 53.73665 | -43.65115 | 36150 ft | 483 kts | 259° |
| 2026-05-05 15:47 | 53.72672 | -43.76334 | 36141 ft | 483 kts | 259° |
| 2026-05-05 15:47 | 53.71672 | -43.87559 | 36143 ft | 483 kts | 259° |
| 2026-05-05 15:48 | 53.70658 | -43.98780 | 36143 ft | 484 kts | 259° |
| 2026-05-05 15:48 | 53.69634 | -44.10008 | 36141 ft | 484 kts | 259° |
| 2026-05-05 15:49 | 53.68597 | -44.21241 | 36139 ft | 485 kts | 259° |
| 2026-05-05 15:49 | 53.67551 | -44.32478 | 36143 ft | 484 kts | 259° |
| 2026-05-05 15:50 | 53.66674 | -44.41811 | 36143 ft | 484 kts | 259° |
| 2026-05-05 15:50 | 53.65434 | -44.54836 | 36138 ft | 484 kts | 259° |
| 2026-05-05 15:51 | 53.64355 | -44.66038 | 36134 ft | 484 kts | 258° |
| 2026-05-05 15:51 | 53.63453 | -44.75331 | 36131 ft | 483 kts | 258° |
| 2026-05-05 15:52 | 53.62354 | -44.86576 | 36125 ft | 483 kts | 258° |
| 2026-05-05 15:52 | 53.61251 | -44.97734 | 36129 ft | 483 kts | 258° |
| 2026-05-05 15:53 | 53.60144 | -45.08796 | 36124 ft | 482 kts | 258° |
| 2026-05-05 15:53 | 53.59022 | -45.19914 | 36125 ft | 482 kts | 258° |
| 2026-05-05 15:54 | 53.57889 | -45.31029 | 36121 ft | 482 kts | 258° |
| 2026-05-05 15:54 | 53.56748 | -45.42137 | 36118 ft | 482 kts | 258° |
| 2026-05-05 15:55 | 53.55596 | -45.53245 | 36100 ft | 483 kts | 258° |
| 2026-05-05 15:55 | 53.54426 | -45.64385 | 36007 ft | 484 kts | 258° |
| 2026-05-05 15:56 | 53.53245 | -45.75547 | 35911 ft | 485 kts | 258° |
| 2026-05-05 15:56 | 53.52053 | -45.86700 | 35841 ft | 485 kts | 258° |
| 2026-05-05 15:57 | 53.50852 | -45.97846 | 35814 ft | 484 kts | 258° |
| 2026-05-05 15:57 | 53.49645 | -46.08945 | 35817 ft | 483 kts | 257° |
| 2026-05-05 15:58 | 53.48429 | -46.20020 | 35814 ft | 482 kts | 257° |
| 2026-05-05 15:58 | 53.47205 | -46.31084 | 35810 ft | 482 kts | 257° |
| 2026-05-05 15:59 | 53.45968 | -46.42155 | 35804 ft | 482 kts | 257° |
| 2026-05-05 15:59 | 53.44721 | -46.53215 | 35805 ft | 482 kts | 257° |
| 2026-05-05 16:00 | 53.43464 | -46.64263 | 35805 ft | 482 kts | 257° |
| 2026-05-05 16:00 | 53.42199 | -46.75297 | 35793 ft | 482 kts | 257° |
| 2026-05-05 16:01 | 53.40931 | -46.86263 | 35797 ft | 482 kts | 257° |
| 2026-05-05 16:01 | 53.39647 | -46.97274 | 35798 ft | 482 kts | 257° |
| 2026-05-05 16:02 | 53.38349 | -47.08294 | 35789 ft | 482 kts | 257° |
| 2026-05-05 16:02 | 53.37039 | -47.19299 | 35788 ft | 482 kts | 257° |
| 2026-05-05 16:03 | 53.35725 | -47.30300 | 35782 ft | 482 kts | 257° |
| 2026-05-05 16:03 | 53.34400 | -47.41276 | 35783 ft | 482 kts | 257° |
| 2026-05-05 16:04 | 53.33063 | -47.52256 | 35785 ft | 481 kts | 257° |
| 2026-05-05 16:04 | 53.31721 | -47.63232 | 35771 ft | 482 kts | 256° |
| 2026-05-05 16:05 | 53.30365 | -47.74194 | 35769 ft | 482 kts | 256° |
| 2026-05-05 16:05 | 53.28999 | -47.85167 | 35772 ft | 481 kts | 256° |
| 2026-05-05 16:06 | 53.27623 | -47.96108 | 35767 ft | 481 kts | 256° |
| 2026-05-05 16:06 | 53.26238 | -48.07057 | 35763 ft | 482 kts | 256° |
| 2026-05-05 16:07 | 53.24840 | -48.18001 | 35760 ft | 482 kts | 256° |
| 2026-05-05 16:07 | 53.23433 | -48.28948 | 35759 ft | 482 kts | 256° |
| 2026-05-05 16:08 | 53.22012 | -48.39898 | 35752 ft | 482 kts | 256° |
| 2026-05-05 16:08 | 53.20584 | -48.50829 | 35749 ft | 482 kts | 256° |
| 2026-05-05 16:09 | 53.19147 | -48.61753 | 35751 ft | 482 kts | 256° |
| 2026-05-05 16:09 | 53.17701 | -48.72659 | 35742 ft | 482 kts | 256° |
| 2026-05-05 16:10 | 53.16252 | -48.83484 | 35740 ft | 481 kts | 256° |
| 2026-05-05 16:10 | 53.14787 | -48.94350 | 35736 ft | 481 kts | 256° |
| 2026-05-05 16:11 | 53.13318 | -49.05201 | 35728 ft | 480 kts | 256° |
| 2026-05-05 16:12 | 53.10345 | -49.26886 | 35730 ft | 480 kts | 255° |
| 2026-05-05 16:13 | 53.06584 | -49.53862 | 35722 ft | 480 kts | 255° |
| 2026-05-05 16:13 | 53.05048 | -49.64744 | 35712 ft | 480 kts | 255° |
| 2026-05-05 16:14 | 53.01976 | -49.86303 | 35616 ft | 483 kts | 255° |
| 2026-05-05 16:15 | 52.98265 | -50.07606 | 35540 ft | 478 kts | 246° |
| 2026-05-05 16:16 | 52.93269 | -50.27980 | 35538 ft | 476 kts | 246° |
| 2026-05-05 16:17 | 52.89555 | -50.43248 | 35547 ft | 476 kts | 247° |
| 2026-05-05 16:18 | 52.85826 | -50.58504 | 35534 ft | 477 kts | 246° |
| 2026-05-05 16:19 | 52.82077 | -50.73743 | 35534 ft | 477 kts | 246° |
| 2026-05-05 16:19 | 52.78297 | -50.88983 | 35533 ft | 478 kts | 246° |
| 2026-05-05 16:20 | 52.73229 | -51.09258 | 35524 ft | 478 kts | 246° |
| 2026-05-05 16:22 | 52.66853 | -51.34514 | 35525 ft | 477 kts | 246° |
| 2026-05-05 16:23 | 52.61718 | -51.54648 | 35505 ft | 476 kts | 246° |
| 2026-05-05 16:23 | 52.57851 | -51.69696 | 35517 ft | 476 kts | 246° |
| 2026-05-05 16:24 | 52.55281 | -51.79643 | 35517 ft | 476 kts | 246° |
| 2026-05-05 16:25 | 52.51379 | -51.94648 | 35517 ft | 476 kts | 246° |
| 2026-05-05 16:25 | 52.47464 | -52.09612 | 35504 ft | 475 kts | 246° |
| 2026-05-05 16:26 | 52.42216 | -52.29512 | 35516 ft | 476 kts | 246° |
| 2026-05-05 16:27 | 52.39581 | -52.39448 | 35500 ft | 475 kts | 246° |
| 2026-05-05 16:27 | 52.36936 | -52.49370 | 35505 ft | 475 kts | 246° |
| 2026-05-05 16:28 | 52.34283 | -52.59280 | 35505 ft | 475 kts | 245° |
| 2026-05-05 16:28 | 52.31621 | -52.69177 | 35514 ft | 475 kts | 245° |
| 2026-05-05 16:29 | 52.28977 | -52.78967 | 35561 ft | 474 kts | 245° |
| 2026-05-05 16:29 | 52.26306 | -52.88816 | 35577 ft | 474 kts | 245° |
| 2026-05-05 16:30 | 52.23628 | -52.98649 | 35582 ft | 474 kts | 245° |
| 2026-05-05 16:30 | 52.20939 | -53.08480 | 35579 ft | 476 kts | 245° |
| 2026-05-05 16:31 | 52.18235 | -53.18326 | 35572 ft | 476 kts | 245° |
| 2026-05-05 16:31 | 52.15524 | -53.28168 | 35572 ft | 476 kts | 245° |
| 2026-05-05 16:32 | 52.12798 | -53.38007 | 35573 ft | 476 kts | 245° |
| 2026-05-05 16:32 | 52.10065 | -53.47830 | 35572 ft | 477 kts | 245° |
| 2026-05-05 16:33 | 52.07346 | -53.57562 | 35563 ft | 476 kts | 245° |
| 2026-05-05 16:33 | 52.04601 | -53.67351 | 35561 ft | 475 kts | 245° |
| 2026-05-05 16:34 | 52.01857 | -53.77094 | 35562 ft | 474 kts | 245° |
| 2026-05-05 16:34 | 51.99107 | -53.86812 | 35560 ft | 473 kts | 245° |
| 2026-05-05 16:35 | 51.96357 | -53.96494 | 35551 ft | 473 kts | 245° |
| 2026-05-05 16:35 | 51.93600 | -54.06164 | 35554 ft | 472 kts | 245° |
| 2026-05-05 16:36 | 51.90836 | -54.15820 | 35553 ft | 473 kts | 245° |
| 2026-05-05 16:36 | 51.88061 | -54.25470 | 35553 ft | 473 kts | 245° |
| 2026-05-05 16:37 | 51.85278 | -54.35115 | 35553 ft | 473 kts | 245° |
| 2026-05-05 16:37 | 51.82488 | -54.44750 | 35553 ft | 473 kts | 245° |
| 2026-05-05 16:38 | 51.79780 | -54.54428 | 35557 ft | 473 kts | 249° |
| 2026-05-05 16:38 | 51.78139 | -54.62848 | 35557 ft | 473 kts | 253° |
| 2026-05-05 16:39 | 51.76280 | -54.73027 | 35563 ft | 473 kts | 253° |
| 2026-05-05 16:39 | 51.74396 | -54.83195 | 35562 ft | 473 kts | 253° |
| 2026-05-05 16:40 | 51.72487 | -54.93338 | 35561 ft | 472 kts | 253° |
| 2026-05-05 16:40 | 51.70560 | -55.03467 | 35562 ft | 472 kts | 253° |
| 2026-05-05 16:41 | 51.68626 | -55.13584 | 35562 ft | 472 kts | 253° |
| 2026-05-05 16:41 | 51.66700 | -55.23620 | 35562 ft | 471 kts | 253° |
| 2026-05-05 16:42 | 51.64755 | -55.33694 | 35564 ft | 471 kts | 252° |
| 2026-05-05 16:42 | 51.62796 | -55.43767 | 35574 ft | 471 kts | 252° |
| 2026-05-05 16:43 | 51.60830 | -55.53839 | 35571 ft | 472 kts | 252° |
| 2026-05-05 16:43 | 51.58855 | -55.63907 | 35580 ft | 472 kts | 252° |
| 2026-05-05 16:44 | 51.56870 | -55.73974 | 35588 ft | 472 kts | 252° |
| 2026-05-05 16:44 | 51.54878 | -55.84036 | 35589 ft | 473 kts | 252° |
| 2026-05-05 16:45 | 51.52870 | -55.94104 | 35593 ft | 473 kts | 252° |
| 2026-05-05 16:45 | 51.50858 | -56.04152 | 35596 ft | 473 kts | 252° |
| 2026-05-05 16:46 | 51.48838 | -56.14190 | 35603 ft | 473 kts | 252° |
| 2026-05-05 16:46 | 51.46810 | -56.24209 | 35598 ft | 472 kts | 252° |
| 2026-05-05 16:47 | 51.44776 | -56.34213 | 35601 ft | 472 kts | 252° |
| 2026-05-05 16:47 | 51.42734 | -56.44201 | 35599 ft | 471 kts | 252° |
| 2026-05-05 16:48 | 51.40701 | -56.54094 | 35600 ft | 470 kts | 252° |
| 2026-05-05 16:48 | 51.38652 | -56.64029 | 35608 ft | 469 kts | 252° |
| 2026-05-05 16:49 | 51.36592 | -56.73950 | 35613 ft | 469 kts | 252° |
| 2026-05-05 16:49 | 51.34529 | -56.83847 | 35626 ft | 468 kts | 252° |
| 2026-05-05 16:50 | 51.32460 | -56.93718 | 35631 ft | 468 kts | 252° |
| 2026-05-05 16:50 | 51.30386 | -57.03565 | 35629 ft | 467 kts | 251° |
| 2026-05-05 16:51 | 51.28301 | -57.13413 | 35619 ft | 467 kts | 251° |
| 2026-05-05 16:51 | 51.26214 | -57.23234 | 35628 ft | 467 kts | 251° |
| 2026-05-05 16:52 | 51.24116 | -57.33043 | 35634 ft | 467 kts | 251° |
| 2026-05-05 16:52 | 51.22011 | -57.42851 | 35636 ft | 467 kts | 251° |
| 2026-05-05 16:53 | 51.19899 | -57.52639 | 35630 ft | 467 kts | 251° |
| 2026-05-05 16:53 | 51.17778 | -57.62423 | 35633 ft | 467 kts | 251° |
| 2026-05-05 16:54 | 51.15651 | -57.72191 | 35638 ft | 466 kts | 251° |
| 2026-05-05 16:54 | 51.13528 | -57.81885 | 35640 ft | 467 kts | 251° |
| 2026-05-05 16:55 | 51.11386 | -57.91639 | 35644 ft | 467 kts | 251° |
| 2026-05-05 16:55 | 51.09233 | -58.01383 | 35641 ft | 467 kts | 251° |
| 2026-05-05 16:56 | 51.07072 | -58.11115 | 35636 ft | 466 kts | 251° |
| 2026-05-05 16:56 | 51.04910 | -58.20822 | 35641 ft | 466 kts | 251° |
| 2026-05-05 16:57 | 51.02737 | -58.30513 | 35641 ft | 465 kts | 251° |
| 2026-05-05 16:57 | 51.00560 | -58.40186 | 35649 ft | 465 kts | 251° |
| 2026-05-05 16:58 | 50.98374 | -58.49856 | 35644 ft | 465 kts | 251° |
| 2026-05-05 16:58 | 50.96181 | -58.59509 | 35654 ft | 465 kts | 251° |
| 2026-05-05 16:59 | 50.93983 | -58.69141 | 35656 ft | 465 kts | 251° |
| 2026-05-05 16:59 | 50.91776 | -58.78773 | 35661 ft | 465 kts | 251° |
| 2026-05-05 17:00 | 50.89575 | -58.88332 | 35657 ft | 465 kts | 251° |
| 2026-05-05 17:00 | 50.87352 | -58.97950 | 35665 ft | 465 kts | 250° |
| 2026-05-05 17:01 | 50.85118 | -59.07552 | 35666 ft | 465 kts | 250° |
| 2026-05-05 17:01 | 50.82877 | -59.17154 | 35665 ft | 465 kts | 250° |
| 2026-05-05 17:02 | 50.80630 | -59.26739 | 35669 ft | 465 kts | 250° |
| 2026-05-05 17:02 | 50.78377 | -59.36313 | 35674 ft | 465 kts | 250° |
| 2026-05-05 17:03 | 50.76114 | -59.45880 | 35675 ft | 465 kts | 250° |
| 2026-05-05 17:03 | 50.73843 | -59.55441 | 35674 ft | 464 kts | 250° |
| 2026-05-05 17:04 | 50.71565 | -59.64988 | 35673 ft | 464 kts | 250° |
| 2026-05-05 17:04 | 50.69284 | -59.74507 | 35682 ft | 464 kts | 250° |
| 2026-05-05 17:05 | 50.66999 | -59.83999 | 35684 ft | 463 kts | 250° |
| 2026-05-05 17:05 | 50.64704 | -59.93491 | 35681 ft | 463 kts | 250° |
| 2026-05-05 17:06 | 50.62403 | -60.02966 | 35688 ft | 463 kts | 250° |
| 2026-05-05 17:06 | 50.60090 | -60.12448 | 35692 ft | 463 kts | 250° |
| 2026-05-05 17:07 | 50.57776 | -60.21900 | 35694 ft | 463 kts | 250° |
| 2026-05-05 17:07 | 50.55470 | -60.31286 | 35692 ft | 463 kts | 250° |
| 2026-05-05 17:08 | 50.53132 | -60.40749 | 35822 ft | 466 kts | 250° |
| 2026-05-05 17:08 | 50.51955 | -60.45495 | 36106 ft | 466 kts | 250° |
| 2026-05-05 17:08 | 50.50779 | -60.50230 | 36385 ft | 465 kts | 250° |
| 2026-05-05 17:09 | 50.49602 | -60.54963 | 36571 ft | 466 kts | 250° |
| 2026-05-05 17:09 | 50.48421 | -60.59694 | 36882 ft | 463 kts | 250° |
| 2026-05-05 17:09 | 50.47254 | -60.64370 | 37367 ft | 456 kts | 250° |
| 2026-05-05 17:09 | 50.46095 | -60.69006 | 37575 ft | 456 kts | 249° |
| 2026-05-05 17:10 | 50.43753 | -60.78322 | 37681 ft | 460 kts | 249° |
| 2026-05-05 17:10 | 50.41389 | -60.87685 | 37707 ft | 462 kts | 249° |
| 2026-05-05 17:11 | 50.39016 | -60.97058 | 37710 ft | 463 kts | 249° |
| 2026-05-05 17:11 | 50.36651 | -61.06358 | 37709 ft | 463 kts | 249° |
| 2026-05-05 17:12 | 50.34266 | -61.15707 | 37712 ft | 462 kts | 249° |
| 2026-05-05 17:12 | 50.31873 | -61.25031 | 37714 ft | 461 kts | 249° |
| 2026-05-05 17:13 | 50.29480 | -61.34322 | 37723 ft | 460 kts | 249° |
| 2026-05-05 17:13 | 50.27085 | -61.43573 | 37714 ft | 458 kts | 249° |
| 2026-05-05 17:14 | 50.24691 | -61.52800 | 37730 ft | 458 kts | 249° |
| 2026-05-05 17:14 | 50.22290 | -61.61998 | 37724 ft | 457 kts | 249° |
| 2026-05-05 17:15 | 50.19888 | -61.71188 | 37729 ft | 457 kts | 249° |
| 2026-05-05 17:15 | 50.17476 | -61.80360 | 37720 ft | 457 kts | 249° |
| 2026-05-05 17:16 | 50.15060 | -61.89526 | 37712 ft | 456 kts | 249° |
| 2026-05-05 17:16 | 50.12641 | -61.98658 | 37712 ft | 455 kts | 249° |
| 2026-05-05 17:17 | 50.10233 | -62.07722 | 37721 ft | 455 kts | 249° |
| 2026-05-05 17:17 | 50.07802 | -62.16808 | 37724 ft | 454 kts | 249° |
| 2026-05-05 17:18 | 50.05369 | -62.25870 | 37714 ft | 454 kts | 248° |
| 2026-05-05 17:18 | 50.02928 | -62.34931 | 37728 ft | 454 kts | 249° |
| 2026-05-05 17:19 | 50.00482 | -62.43997 | 37710 ft | 455 kts | 248° |
| 2026-05-05 17:19 | 49.98032 | -62.53051 | 37713 ft | 454 kts | 248° |
| 2026-05-05 17:20 | 49.95569 | -62.62103 | 37713 ft | 455 kts | 248° |
| 2026-05-05 17:20 | 49.93096 | -62.71135 | 37705 ft | 455 kts | 248° |
| 2026-05-05 17:21 | 49.90621 | -62.80167 | 37702 ft | 455 kts | 248° |
| 2026-05-05 17:22 | 49.86888 | -62.93686 | 37703 ft | 454 kts | 248° |
| 2026-05-05 17:22 | 49.84396 | -63.02682 | 37700 ft | 454 kts | 248° |
| 2026-05-05 17:23 | 49.81915 | -63.11618 | 37694 ft | 455 kts | 248° |
| 2026-05-05 17:23 | 49.79407 | -63.20598 | 37692 ft | 454 kts | 248° |
| 2026-05-05 17:24 | 49.76892 | -63.29549 | 37691 ft | 454 kts | 248° |
| 2026-05-05 17:24 | 49.74380 | -63.38503 | 37695 ft | 454 kts | 248° |
| 2026-05-05 17:25 | 49.71856 | -63.47456 | 37695 ft | 454 kts | 248° |
| 2026-05-05 17:25 | 49.69320 | -63.56388 | 37694 ft | 454 kts | 248° |
| 2026-05-05 17:26 | 49.66778 | -63.65313 | 37691 ft | 453 kts | 248° |
| 2026-05-05 17:26 | 49.64244 | -63.74217 | 37679 ft | 453 kts | 248° |
| 2026-05-05 17:27 | 49.61710 | -63.83062 | 37675 ft | 454 kts | 248° |
| 2026-05-05 17:27 | 49.59148 | -63.91957 | 37675 ft | 454 kts | 248° |
| 2026-05-05 17:28 | 49.56582 | -64.00831 | 37673 ft | 454 kts | 248° |
| 2026-05-05 17:28 | 49.54011 | -64.09702 | 37676 ft | 453 kts | 248° |
| 2026-05-05 17:29 | 49.51437 | -64.18550 | 37671 ft | 453 kts | 247° |
| 2026-05-05 17:29 | 49.49297 | -64.25887 | 37665 ft | 453 kts | 248° |
| 2026-05-05 17:30 | 49.46712 | -64.34711 | 37665 ft | 452 kts | 247° |
| 2026-05-05 17:30 | 49.44130 | -64.43509 | 37666 ft | 452 kts | 247° |
| 2026-05-05 17:31 | 49.41535 | -64.52301 | 37659 ft | 452 kts | 247° |
| 2026-05-05 17:31 | 49.38934 | -64.61084 | 37657 ft | 452 kts | 247° |
| 2026-05-05 17:32 | 49.36335 | -64.69840 | 37655 ft | 451 kts | 247° |
| 2026-05-05 17:32 | 49.33729 | -64.78574 | 37656 ft | 450 kts | 247° |
| 2026-05-05 17:33 | 49.31122 | -64.87285 | 37651 ft | 449 kts | 247° |
| 2026-05-05 17:33 | 49.28514 | -64.95966 | 37657 ft | 448 kts | 247° |
| 2026-05-05 17:34 | 49.25901 | -65.04642 | 37657 ft | 448 kts | 246° |
| 2026-05-05 17:34 | 49.23281 | -65.13299 | 37656 ft | 448 kts | 246° |
| 2026-05-05 17:35 | 49.20660 | -65.21941 | 37656 ft | 447 kts | 246° |
| 2026-05-05 17:35 | 49.18035 | -65.30560 | 37659 ft | 447 kts | 246° |
| 2026-05-05 17:36 | 49.15408 | -65.39166 | 37653 ft | 447 kts | 246° |
| 2026-05-05 17:36 | 49.12788 | -65.47704 | 37645 ft | 447 kts | 246° |
| 2026-05-05 17:37 | 49.10144 | -65.56276 | 37646 ft | 446 kts | 246° |
| 2026-05-05 17:37 | 49.07496 | -65.64853 | 37650 ft | 446 kts | 246° |
| 2026-05-05 17:38 | 49.04849 | -65.73406 | 37646 ft | 446 kts | 246° |
| 2026-05-05 17:38 | 49.02195 | -65.81930 | 37642 ft | 445 kts | 246° |
| 2026-05-05 17:39 | 48.99538 | -65.90461 | 37631 ft | 445 kts | 246° |
| 2026-05-05 17:39 | 48.96873 | -65.98975 | 37633 ft | 445 kts | 246° |
| 2026-05-05 17:40 | 48.94201 | -66.07471 | 37631 ft | 445 kts | 245° |
| 2026-05-05 17:40 | 48.91525 | -66.15962 | 37624 ft | 445 kts | 245° |
| 2026-05-05 17:41 | 48.88842 | -66.24441 | 37623 ft | 444 kts | 245° |
| 2026-05-05 17:41 | 48.86154 | -66.32898 | 37615 ft | 445 kts | 245° |
| 2026-05-05 17:42 | 48.83464 | -66.41346 | 37604 ft | 444 kts | 245° |
| 2026-05-05 17:42 | 48.80786 | -66.49727 | 37606 ft | 444 kts | 245° |
| 2026-05-05 17:43 | 48.78088 | -66.58153 | 37599 ft | 444 kts | 245° |
| 2026-05-05 17:43 | 48.75386 | -66.66550 | 37598 ft | 443 kts | 245° |
| 2026-05-05 17:44 | 48.72679 | -66.74937 | 37595 ft | 443 kts | 245° |
| 2026-05-05 17:44 | 48.69964 | -66.83313 | 37588 ft | 443 kts | 245° |
| 2026-05-05 17:45 | 48.67249 | -66.91679 | 37597 ft | 443 kts | 245° |
| 2026-05-05 17:45 | 48.64527 | -67.00030 | 37585 ft | 443 kts | 245° |
| 2026-05-05 17:46 | 48.61799 | -67.08371 | 37585 ft | 443 kts | 245° |
| 2026-05-05 17:46 | 48.59066 | -67.16706 | 37576 ft | 442 kts | 245° |
| 2026-05-05 17:47 | 48.56328 | -67.25018 | 37586 ft | 442 kts | 244° |
| 2026-05-05 17:47 | 48.53583 | -67.33321 | 37588 ft | 442 kts | 244° |
| 2026-05-05 17:48 | 48.50833 | -67.41614 | 37592 ft | 442 kts | 244° |
| 2026-05-05 17:48 | 48.48094 | -67.49847 | 37594 ft | 442 kts | 244° |
| 2026-05-05 17:49 | 48.45335 | -67.58132 | 37585 ft | 442 kts | 244° |
| 2026-05-05 17:49 | 48.42565 | -67.66414 | 37577 ft | 443 kts | 244° |
| 2026-05-05 17:50 | 48.39792 | -67.74680 | 37585 ft | 442 kts | 244° |
| 2026-05-05 17:50 | 48.37011 | -67.82929 | 37583 ft | 442 kts | 244° |
| 2026-05-05 17:51 | 48.34223 | -67.91177 | 37572 ft | 443 kts | 244° |
| 2026-05-05 17:51 | 48.31433 | -67.99415 | 37571 ft | 441 kts | 244° |
| 2026-05-05 17:52 | 48.28643 | -68.07617 | 37574 ft | 441 kts | 244° |
| 2026-05-05 17:52 | 48.25847 | -68.15818 | 37572 ft | 441 kts | 244° |
| 2026-05-05 17:53 | 48.23052 | -68.23992 | 37582 ft | 441 kts | 244° |
| 2026-05-05 17:53 | 48.20248 | -68.32165 | 37579 ft | 441 kts | 244° |
| 2026-05-05 17:54 | 48.17450 | -68.40273 | 37583 ft | 441 kts | 244° |
| 2026-05-05 17:54 | 48.14631 | -68.48438 | 37580 ft | 441 kts | 244° |
| 2026-05-05 17:55 | 48.11804 | -68.56608 | 37583 ft | 442 kts | 243° |
| 2026-05-05 17:55 | 48.08966 | -68.64764 | 37594 ft | 442 kts | 243° |
| 2026-05-05 17:56 | 48.06124 | -68.72905 | 37591 ft | 441 kts | 243° |
| 2026-05-05 17:56 | 48.03283 | -68.81029 | 37592 ft | 441 kts | 243° |
| 2026-05-05 17:57 | 48.00436 | -68.89143 | 37594 ft | 441 kts | 243° |
| 2026-05-05 17:57 | 47.97585 | -68.97243 | 37596 ft | 440 kts | 243° |
| 2026-05-05 17:58 | 47.94736 | -69.05313 | 37595 ft | 439 kts | 243° |
| 2026-05-05 17:58 | 47.91892 | -69.13365 | 37595 ft | 439 kts | 243° |
| 2026-05-05 17:59 | 47.89036 | -69.21399 | 37597 ft | 438 kts | 243° |
| 2026-05-05 17:59 | 47.86176 | -69.29417 | 37594 ft | 438 kts | 243° |
| 2026-05-05 18:00 | 47.83320 | -69.37405 | 37598 ft | 437 kts | 243° |
| 2026-05-05 18:00 | 47.80460 | -69.45389 | 37587 ft | 437 kts | 243° |
| 2026-05-05 18:01 | 47.77612 | -69.53320 | 37589 ft | 437 kts | 243° |
| 2026-05-05 18:01 | 47.74568 | -69.61119 | 37585 ft | 437 kts | 235° |
| 2026-05-05 18:02 | 47.70931 | -69.68347 | 37589 ft | 437 kts | 234° |
| 2026-05-05 18:02 | 47.67290 | -69.75571 | 37592 ft | 436 kts | 234° |
| 2026-05-05 18:03 | 47.63665 | -69.82782 | 37591 ft | 436 kts | 234° |
| 2026-05-05 18:03 | 47.60033 | -69.90010 | 37586 ft | 438 kts | 234° |
| 2026-05-05 18:04 | 47.56393 | -69.97247 | 37580 ft | 438 kts | 234° |
| 2026-05-05 18:04 | 47.52772 | -70.04429 | 37582 ft | 437 kts | 234° |
| 2026-05-05 18:05 | 47.49132 | -70.11628 | 37580 ft | 438 kts | 234° |
| 2026-05-05 18:05 | 47.45481 | -70.18816 | 37577 ft | 437 kts | 234° |
| 2026-05-05 18:06 | 47.41824 | -70.25992 | 37577 ft | 437 kts | 234° |
| 2026-05-05 18:06 | 47.38171 | -70.33155 | 37583 ft | 437 kts | 234° |
| 2026-05-05 18:07 | 47.34517 | -70.40309 | 37594 ft | 436 kts | 234° |
| 2026-05-05 18:07 | 47.30865 | -70.47436 | 37600 ft | 435 kts | 233° |
| 2026-05-05 18:08 | 47.27228 | -70.54510 | 37589 ft | 432 kts | 233° |
| 2026-05-05 18:08 | 47.23613 | -70.61527 | 37595 ft | 429 kts | 233° |
| 2026-05-05 18:09 | 47.20016 | -70.68485 | 37613 ft | 426 kts | 233° |
| 2026-05-05 18:09 | 47.16423 | -70.75423 | 37603 ft | 426 kts | 233° |
| 2026-05-05 18:10 | 47.12827 | -70.82353 | 37604 ft | 427 kts | 233° |
| 2026-05-05 18:10 | 47.09221 | -70.89280 | 37598 ft | 427 kts | 233° |
| 2026-05-05 18:11 | 47.05613 | -70.96194 | 37617 ft | 427 kts | 233° |
| 2026-05-05 18:11 | 47.01993 | -71.03113 | 37620 ft | 427 kts | 233° |
| 2026-05-05 18:12 | 46.98365 | -71.10029 | 37614 ft | 428 kts | 233° |
| 2026-05-05 18:12 | 46.94754 | -71.16891 | 37619 ft | 429 kts | 233° |
| 2026-05-05 18:13 | 46.91110 | -71.23810 | 37618 ft | 429 kts | 233° |
| 2026-05-05 18:13 | 46.87461 | -71.30718 | 37620 ft | 429 kts | 233° |
| 2026-05-05 18:14 | 46.83805 | -71.37616 | 37622 ft | 430 kts | 233° |
| 2026-05-05 18:14 | 46.80139 | -71.44519 | 37617 ft | 430 kts | 233° |
| 2026-05-05 18:15 | 46.76471 | -71.51418 | 37620 ft | 430 kts | 233° |
| 2026-05-05 18:15 | 46.72753 | -71.58261 | 37608 ft | 431 kts | 228° |
| 2026-05-05 18:16 | 46.68089 | -71.63743 | 37616 ft | 434 kts | 214° |
| 2026-05-05 18:16 | 46.62627 | -71.67517 | 37618 ft | 436 kts | 205° |
| 2026-05-05 18:17 | 46.56995 | -71.70827 | 37602 ft | 437 kts | 205° |
| 2026-05-05 18:17 | 46.51360 | -71.74152 | 37601 ft | 437 kts | 205° |
| 2026-05-05 18:18 | 46.45736 | -71.77506 | 37598 ft | 437 kts | 205° |
| 2026-05-05 18:18 | 46.41065 | -71.80303 | 37605 ft | 437 kts | 205° |
| 2026-05-05 18:19 | 46.35447 | -71.83665 | 37591 ft | 437 kts | 205° |
| 2026-05-05 18:19 | 46.28923 | -71.87558 | 37597 ft | 436 kts | 205° |
| 2026-05-05 18:20 | 46.24222 | -71.90356 | 37602 ft | 436 kts | 205° |
| 2026-05-05 18:20 | 46.18648 | -71.93668 | 37597 ft | 436 kts | 205° |
| 2026-05-05 18:21 | 46.13003 | -71.97014 | 37604 ft | 436 kts | 205° |
| 2026-05-05 18:21 | 46.07433 | -72.00309 | 37597 ft | 436 kts | 205° |
| 2026-05-05 18:22 | 46.01825 | -72.03616 | 37603 ft | 436 kts | 205° |
| 2026-05-05 18:22 | 45.96214 | -72.06918 | 37605 ft | 436 kts | 205° |
| 2026-05-05 18:23 | 45.90602 | -72.10215 | 37616 ft | 436 kts | 205° |
| 2026-05-05 18:23 | 45.84987 | -72.13510 | 37599 ft | 435 kts | 205° |
| 2026-05-05 18:24 | 45.79383 | -72.16788 | 37615 ft | 435 kts | 205° |
| 2026-05-05 18:24 | 45.73776 | -72.20060 | 37612 ft | 435 kts | 205° |
| 2026-05-05 18:25 | 45.68166 | -72.23327 | 37617 ft | 435 kts | 205° |
| 2026-05-05 18:25 | 45.62554 | -72.26590 | 37617 ft | 435 kts | 205° |
| 2026-05-05 18:26 | 45.56939 | -72.29844 | 37620 ft | 436 kts | 204° |
| 2026-05-05 18:26 | 45.51355 | -72.33074 | 37626 ft | 436 kts | 204° |
| 2026-05-05 18:27 | 45.45726 | -72.36324 | 37639 ft | 436 kts | 204° |
| 2026-05-05 18:27 | 45.40093 | -72.39567 | 37648 ft | 437 kts | 204° |
| 2026-05-05 18:28 | 45.31650 | -72.44422 | 37647 ft | 437 kts | 204° |
| 2026-05-05 18:28 | 45.26005 | -72.47659 | 37649 ft | 437 kts | 204° |
| 2026-05-05 18:29 | 45.20364 | -72.50885 | 37656 ft | 437 kts | 204° |
| 2026-05-05 18:29 | 45.14717 | -72.54107 | 37656 ft | 438 kts | 204° |
| 2026-05-05 18:30 | 45.09058 | -72.57329 | 37658 ft | 438 kts | 204° |
| 2026-05-05 18:30 | 45.03437 | -72.60522 | 37666 ft | 439 kts | 204° |
| 2026-05-05 18:31 | 44.97774 | -72.63732 | 37665 ft | 439 kts | 204° |
| 2026-05-05 18:31 | 44.92107 | -72.66937 | 37666 ft | 439 kts | 204° |
| 2026-05-05 18:32 | 44.86442 | -72.70134 | 37673 ft | 438 kts | 204° |
| 2026-05-05 18:32 | 44.80775 | -72.73330 | 37675 ft | 439 kts | 204° |
| 2026-05-05 18:33 | 44.75109 | -72.76513 | 37670 ft | 438 kts | 204° |
| 2026-05-05 18:33 | 44.69443 | -72.79690 | 37661 ft | 438 kts | 204° |
| 2026-05-05 18:34 | 44.63777 | -72.82863 | 37670 ft | 439 kts | 204° |
| 2026-05-05 18:34 | 44.58106 | -72.86032 | 37669 ft | 439 kts | 204° |
| 2026-05-05 18:35 | 44.52431 | -72.89195 | 37664 ft | 439 kts | 204° |
| 2026-05-05 18:35 | 44.46754 | -72.92352 | 37658 ft | 439 kts | 204° |
| 2026-05-05 18:36 | 44.41075 | -72.95504 | 37662 ft | 439 kts | 204° |
| 2026-05-05 18:36 | 44.35440 | -72.98625 | 37665 ft | 439 kts | 204° |
| 2026-05-05 18:37 | 44.29761 | -73.01767 | 37659 ft | 439 kts | 204° |
| 2026-05-05 18:37 | 44.24079 | -73.04901 | 37682 ft | 439 kts | 204° |
| 2026-05-05 18:38 | 44.18394 | -73.08032 | 37674 ft | 439 kts | 204° |
| 2026-05-05 18:38 | 44.12720 | -73.11149 | 37685 ft | 438 kts | 204° |
| 2026-05-05 18:39 | 44.07047 | -73.14260 | 37685 ft | 438 kts | 204° |
| 2026-05-05 18:39 | 44.01369 | -73.17366 | 37685 ft | 438 kts | 204° |
| 2026-05-05 18:40 | 43.95694 | -73.20460 | 37681 ft | 438 kts | 203° |
| 2026-05-05 18:40 | 43.90020 | -73.23551 | 37686 ft | 438 kts | 203° |
| 2026-05-05 18:41 | 43.84344 | -73.26640 | 37688 ft | 438 kts | 203° |
| 2026-05-05 18:41 | 43.78700 | -73.29702 | 37697 ft | 438 kts | 203° |
| 2026-05-05 18:42 | 43.73018 | -73.32776 | 37703 ft | 439 kts | 203° |
| 2026-05-05 18:42 | 43.67339 | -73.35845 | 37712 ft | 438 kts | 203° |
| 2026-05-05 18:43 | 43.61655 | -73.38913 | 37712 ft | 439 kts | 203° |
| 2026-05-05 18:43 | 43.55961 | -73.41976 | 37729 ft | 440 kts | 203° |
| 2026-05-05 18:44 | 43.50261 | -73.45039 | 37710 ft | 440 kts | 203° |
| 2026-05-05 18:44 | 43.44563 | -73.48095 | 37714 ft | 439 kts | 203° |
| 2026-05-05 18:45 | 43.38862 | -73.51144 | 37710 ft | 440 kts | 203° |
| 2026-05-05 18:45 | 43.33155 | -73.54191 | 37711 ft | 440 kts | 203° |
| 2026-05-05 18:46 | 43.27441 | -73.57234 | 37701 ft | 441 kts | 203° |
| 2026-05-05 18:46 | 43.21725 | -73.60277 | 37704 ft | 441 kts | 203° |
| 2026-05-05 18:47 | 43.15953 | -73.63096 | 37718 ft | 441 kts | 199° |
| 2026-05-05 18:47 | 43.10064 | -73.65520 | 37729 ft | 442 kts | 199° |
| 2026-05-05 18:48 | 43.04170 | -73.67938 | 37730 ft | 442 kts | 199° |
| 2026-05-05 18:48 | 42.98320 | -73.70392 | 37737 ft | 443 kts | 199° |
| 2026-05-05 18:49 | 42.92433 | -73.72875 | 37747 ft | 443 kts | 199° |
| 2026-05-05 18:49 | 42.86544 | -73.75356 | 37750 ft | 443 kts | 199° |
| 2026-05-05 18:50 | 42.80649 | -73.77836 | 37748 ft | 444 kts | 199° |
| 2026-05-05 18:50 | 42.74744 | -73.80311 | 37747 ft | 444 kts | 199° |
| 2026-05-05 18:51 | 42.68865 | -73.82900 | 37749 ft | 444 kts | 200° |
| 2026-05-05 18:51 | 42.63099 | -73.85513 | 37144 ft | 421 kts | 200° |
| 2026-05-05 18:52 | 42.60365 | -73.86747 | 36321 ft | 408 kts | 200° |
| 2026-05-05 18:52 | 42.57630 | -73.87683 | 35267 ft | 404 kts | 190° |
| 2026-05-05 18:52 | 42.54824 | -73.87936 | 33990 ft | 407 kts | 180° |
| 2026-05-05 18:52 | 42.51999 | -73.87473 | 32692 ft | 411 kts | 169° |
| 2026-05-05 18:53 | 42.49271 | -73.86326 | 31616 ft | 408 kts | 161° |
| 2026-05-05 18:53 | 42.46669 | -73.84865 | 30684 ft | 400 kts | 160° |
| 2026-05-05 18:53 | 42.44053 | -73.83758 | 29719 ft | 390 kts | 171° |
| 2026-05-05 18:53 | 42.41387 | -73.83371 | 28726 ft | 381 kts | 182° |
| 2026-05-05 18:54 | 42.38785 | -73.83695 | 27695 ft | 372 kts | 194° |
| 2026-05-05 18:54 | 42.36336 | -73.84709 | 26677 ft | 364 kts | 206° |
| 2026-05-05 18:54 | 42.34161 | -73.86391 | 25682 ft | 357 kts | 219° |
| 2026-05-05 18:54 | 42.32369 | -73.88583 | 24737 ft | 349 kts | 224° |
| 2026-05-05 18:55 | 42.30428 | -73.90581 | 23749 ft | 345 kts | 212° |
| 2026-05-05 18:55 | 42.28352 | -73.92153 | 22931 ft | 351 kts | 209° |
| 2026-05-05 18:55 | 42.26165 | -73.93628 | 22480 ft | 351 kts | 207° |
| 2026-05-05 18:55 | 42.23963 | -73.95053 | 22077 ft | 351 kts | 207° |
| 2026-05-05 18:56 | 42.21765 | -73.96464 | 21676 ft | 348 kts | 207° |
| 2026-05-05 18:56 | 42.19585 | -73.97862 | 21279 ft | 346 kts | 207° |
| 2026-05-05 18:56 | 42.17412 | -73.99260 | 20888 ft | 344 kts | 207° |
| 2026-05-05 18:56 | 42.15271 | -74.00652 | 20482 ft | 339 kts | 208° |
| 2026-05-05 18:57 | 42.13153 | -74.02020 | 20080 ft | 338 kts | 207° |
| 2026-05-05 18:57 | 42.11039 | -74.03387 | 19685 ft | 336 kts | 208° |
| 2026-05-05 18:57 | 42.08940 | -74.04752 | 19293 ft | 335 kts | 208° |
| 2026-05-05 18:57 | 42.06846 | -74.06114 | 18899 ft | 333 kts | 208° |
| 2026-05-05 18:58 | 42.04764 | -74.07467 | 18504 ft | 331 kts | 208° |
| 2026-05-05 18:58 | 42.02689 | -74.08814 | 18107 ft | 330 kts | 208° |
| 2026-05-05 18:58 | 42.00629 | -74.10149 | 17794 ft | 326 kts | 208° |
| 2026-05-05 18:58 | 41.98592 | -74.11468 | 17423 ft | 324 kts | 208° |
| 2026-05-05 18:59 | 41.96566 | -74.12779 | 17032 ft | 322 kts | 208° |
| 2026-05-05 18:59 | 41.94552 | -74.14081 | 16639 ft | 320 kts | 208° |
| 2026-05-05 18:59 | 41.92548 | -74.15376 | 16239 ft | 319 kts | 208° |
| 2026-05-05 18:59 | 41.90554 | -74.16666 | 15862 ft | 317 kts | 208° |
| 2026-05-05 19:00 | 41.88579 | -74.17946 | 15458 ft | 314 kts | 208° |
| 2026-05-05 19:00 | 41.86614 | -74.19214 | 15073 ft | 314 kts | 208° |
| 2026-05-05 19:00 | 41.84622 | -74.20399 | 14675 ft | 313 kts | 203° |
| 2026-05-05 19:00 | 41.82555 | -74.21322 | 14298 ft | 312 kts | 200° |
| 2026-05-05 19:01 | 41.80479 | -74.22171 | 13905 ft | 311 kts | 200° |
| 2026-05-05 19:01 | 41.78414 | -74.23021 | 13512 ft | 310 kts | 200° |
| 2026-05-05 19:01 | 41.76384 | -74.23873 | 13122 ft | 309 kts | 200° |
| 2026-05-05 19:01 | 41.74336 | -74.24746 | 12726 ft | 308 kts | 201° |
| 2026-05-05 19:02 | 41.72301 | -74.25626 | 12344 ft | 307 kts | 201° |
| 2026-05-05 19:02 | 41.70276 | -74.26504 | 11958 ft | 305 kts | 201° |
| 2026-05-05 19:02 | 41.68268 | -74.27374 | 11577 ft | 301 kts | 201° |
| 2026-05-05 19:02 | 41.66276 | -74.28239 | 11191 ft | 300 kts | 201° |
| 2026-05-05 19:03 | 41.64299 | -74.29098 | 10822 ft | 298 kts | 200° |
| 2026-05-05 19:03 | 41.62327 | -74.29952 | 10452 ft | 297 kts | 200° |
| 2026-05-05 19:03 | 41.60372 | -74.30799 | 10118 ft | 293 kts | 200° |
| 2026-05-05 19:03 | 41.58470 | -74.31624 | 10017 ft | 283 kts | 200° |
| 2026-05-05 19:04 | 41.56612 | -74.32427 | 9718 ft | 280 kts | 200° |
| 2026-05-05 19:04 | 41.54810 | -74.33206 | 9428 ft | 264 kts | 200° |
| 2026-05-05 19:04 | 41.53099 | -74.33947 | 9179 ft | 257 kts | 200° |
| 2026-05-05 19:04 | 41.51406 | -74.34679 | 8901 ft | 255 kts | 200° |
| 2026-05-05 19:05 | 41.49725 | -74.35405 | 8600 ft | 253 kts | 200° |
| 2026-05-05 19:05 | 41.48052 | -74.36129 | 8303 ft | 252 kts | 200° |
| 2026-05-05 19:05 | 41.46388 | -74.36850 | 7993 ft | 252 kts | 200° |
| 2026-05-05 19:05 | 41.44713 | -74.37566 | 7621 ft | 251 kts | 198° |
| 2026-05-05 19:06 | 41.42999 | -74.37847 | 7253 ft | 251 kts | 176° |
| 2026-05-05 19:06 | 41.41289 | -74.37393 | 6959 ft | 251 kts | 169° |
| 2026-05-05 19:06 | 41.39589 | -74.36782 | 6596 ft | 255 kts | 168° |
| 2026-05-05 19:06 | 41.37873 | -74.36148 | 6239 ft | 257 kts | 167° |
| 2026-05-05 19:07 | 41.36154 | -74.35507 | 5899 ft | 257 kts | 168° |
| 2026-05-05 19:07 | 41.35011 | -74.35081 | 5678 ft | 257 kts | 167° |
| 2026-05-05 19:07 | 41.32717 | -74.34219 | 5307 ft | 256 kts | 167° |
| 2026-05-05 19:07 | 41.31030 | -74.33586 | 5124 ft | 251 kts | 167° |
| 2026-05-05 19:08 | 41.29362 | -74.32960 | 5049 ft | 248 kts | 167° |
| 2026-05-05 19:08 | 41.28237 | -74.32540 | 5031 ft | 250 kts | 167° |
| 2026-05-05 19:08 | 41.25989 | -74.31705 | 4990 ft | 256 kts | 167° |
| 2026-05-05 19:08 | 41.24269 | -74.31079 | 4950 ft | 255 kts | 168° |
| 2026-05-05 19:09 | 41.22563 | -74.30453 | 4947 ft | 252 kts | 167° |
| 2026-05-05 19:09 | 41.20907 | -74.29736 | 4961 ft | 252 kts | 160° |
| 2026-05-05 19:09 | 41.19289 | -74.28762 | 4966 ft | 258 kts | 158° |
| 2026-05-05 19:09 | 41.17664 | -74.27732 | 4971 ft | 259 kts | 158° |
| 2026-05-05 19:10 | 41.16564 | -74.27033 | 4968 ft | 259 kts | 158° |
| 2026-05-05 19:10 | 41.14968 | -74.26019 | 4963 ft | 256 kts | 158° |
| 2026-05-05 19:10 | 41.13390 | -74.25011 | 4955 ft | 248 kts | 158° |
| 2026-05-05 19:10 | 41.11850 | -74.24022 | 4925 ft | 244 kts | 158° |
| 2026-05-05 19:11 | 41.10340 | -74.23045 | 4880 ft | 240 kts | 158° |
| 2026-05-05 19:11 | 41.08851 | -74.22084 | 4843 ft | 236 kts | 157° |
| 2026-05-05 19:11 | 41.07387 | -74.21129 | 4747 ft | 234 kts | 157° |
| 2026-05-05 19:11 | 41.05957 | -74.20114 | 4571 ft | 234 kts | 147° |
| 2026-05-05 19:12 | 41.04728 | -74.18665 | 4289 ft | 240 kts | 139° |
| 2026-05-05 19:12 | 41.03559 | -74.17082 | 4179 ft | 238 kts | 137° |
| 2026-05-05 19:12 | 41.02409 | -74.15511 | 4111 ft | 237 kts | 137° |
| 2026-05-05 19:12 | 41.01273 | -74.13948 | 3986 ft | 236 kts | 137° |
| 2026-05-05 19:13 | 41.00131 | -74.12381 | 3845 ft | 236 kts | 137° |
| 2026-05-05 19:13 | 40.98966 | -74.10866 | 3660 ft | 231 kts | 147° |
| 2026-05-05 19:13 | 40.97518 | -74.10037 | 3412 ft | 225 kts | 172° |
| 2026-05-05 19:13 | 40.95980 | -74.09666 | 3236 ft | 225 kts | 172° |
| 2026-05-05 19:14 | 40.94449 | -74.09290 | 3177 ft | 224 kts | 172° |
| 2026-05-05 19:14 | 40.92922 | -74.08924 | 3117 ft | 222 kts | 173° |
| 2026-05-05 19:14 | 40.91398 | -74.08560 | 3116 ft | 223 kts | 172° |
| 2026-05-05 19:14 | 40.89859 | -74.08185 | 3095 ft | 225 kts | 172° |
| 2026-05-05 19:15 | 40.88327 | -74.07808 | 3093 ft | 220 kts | 172° |
| 2026-05-05 19:15 | 40.86869 | -74.07448 | 3066 ft | 207 kts | 173° |
| 2026-05-05 19:15 | 40.85473 | -74.07107 | 3089 ft | 202 kts | 175° |
| 2026-05-05 19:15 | 40.84111 | -74.07256 | 2884 ft | 196 kts | 202° |
| 2026-05-05 19:16 | 40.82834 | -74.07921 | 2690 ft | 200 kts | 202° |
| 2026-05-05 19:16 | 40.81559 | -74.08631 | 2571 ft | 198 kts | 205° |
| 2026-05-05 19:16 | 40.80344 | -74.09389 | 2304 ft | 191 kts | 206° |
| 2026-05-05 19:16 | 40.79176 | -74.10135 | 2045 ft | 181 kts | 206° |
| 2026-05-05 19:17 | 40.78084 | -74.10837 | 1833 ft | 166 kts | 206° |
| 2026-05-05 19:17 | 40.77089 | -74.11472 | 1613 ft | 153 kts | 206° |
| 2026-05-05 19:17 | 40.76148 | -74.12075 | 1439 ft | 152 kts | 206° |
| 2026-05-05 19:17 | 40.75198 | -74.12689 | 1227 ft | 150 kts | 206° |
| 2026-05-05 19:18 | 40.74246 | -74.13295 | 1030 ft | 152 kts | 206° |
| 2026-05-05 19:18 | 40.73292 | -74.13910 | 799 ft | 152 kts | 205° |
| 2026-05-05 19:18 | 40.72344 | -74.14512 | 600 ft | 151 kts | 206° |
| 2026-05-05 19:18 | 40.71396 | -74.15112 | 403 ft | 150 kts | 205° |
| 2026-05-05 19:19 | 40.70460 | -74.15702 | 180 ft | 148 kts | 206° |
| 2026-05-05 19:19 | 40.69532 | -74.16293 | 51 ft | 149 kts | 205° |
| 2026-05-05 19:19 | 40.68655 | -74.16856 | 26 ft | 122 kts | 205° |
| 2026-05-05 19:19 | 40.68134 | -74.17187 | 32 ft | 57 kts | 205° |
| 2026-05-05 19:20 | 40.67975 | -74.17364 | 28 ft | 15 kts | 244° |
| 2026-05-05 19:20 | 40.67956 | -74.17448 | 31 ft | 10 kts | 263° |
| 2026-05-05 19:20 | 40.67958 | -74.17536 | 25 ft | 10 kts | 275° |
| 2026-05-05 19:20 | 40.67998 | -74.17677 | 26 ft | 22 kts | 296° |
| 2026-05-05 19:21 | 40.68058 | -74.17838 | 26 ft | 9 kts | 299° |
| 2026-05-05 19:21 | 40.68124 | -74.17854 | 26 ft | 16 kts | 21° |
| 2026-05-05 19:21 | 40.68270 | -74.17761 | 26 ft | 25 kts | 26° |
| 2026-05-05 19:21 | 40.68425 | -74.17662 | 27 ft | 25 kts | 26° |
| 2026-05-05 19:22 | 40.68579 | -74.17563 | 27 ft | 25 kts | 26° |
| 2026-05-05 19:22 | 40.68732 | -74.17465 | 27 ft | 25 kts | 25° |
| 2026-05-05 19:22 | 40.68887 | -74.17369 | 26 ft | 25 kts | 26° |
| 2026-05-05 19:22 | 40.69040 | -74.17270 | 26 ft | 19 kts | 26° |
| 2026-05-05 19:23 | 40.69098 | -74.17261 | 26 ft | 6 kts | 320° |
| 2026-05-05 19:23 | 40.69105 | -74.17316 | 26 ft | 6 kts | 277° |
| 2026-05-05 19:23 | 40.69130 | -74.17353 | 26 ft | 4 kts | 320° |
| 2026-05-05 19:23 | 40.69137 | -74.17361 | 26 ft | 0 kts | 320° |